<?xml version='1.0' encoding='UTF-8'?><gpx version="1.1" creator="JPX - https://github.com/jenetics/jpx" xmlns="http://www.topografix.com/GPX/1/1"><trk><trkseg><trkpt lat="48.31844205983834" lon="-0.6550452696552115"><ele>150.0</ele><time>2026-04-07T15:13:44.001Z</time></trkpt><trkpt lat="48.31840892415649" lon="-0.6549285455589"><ele>150.0</ele><time>2026-04-07T15:13:47.001Z</time></trkpt><trkpt lat="48.31839505825092" lon="-0.6548046143353334"><ele>150.0</ele><time>2026-04-07T15:13:49Z</time></trkpt><trkpt lat="48.31837531615115" lon="-0.6546945011615766"><ele>150.0</ele><time>2026-04-07T15:13:51Z</time></trkpt><trkpt lat="48.318345001110536" lon="-0.6546050406579613"><ele>150.0</ele><time>2026-04-07T15:13:53Z</time></trkpt><trkpt lat="48.318276701492806" lon="-0.6545718736019084"><ele>150.0</ele><time>2026-04-07T15:13:55Z</time></trkpt><trkpt lat="48.3182116015818" lon="-0.6546211899744413"><ele>150.0</ele><time>2026-04-07T15:13:56Z</time></trkpt><trkpt lat="48.31811716975211" lon="-0.6546240610272663"><ele>150.0</ele><time>2026-04-07T15:13:59Z</time></trkpt><trkpt lat="48.318048889581895" lon="-0.6545471325711778"><ele>150.0</ele><time>2026-04-07T15:14:01Z</time></trkpt><trkpt lat="48.31802453884744" lon="-0.6544258910250131"><ele>150.0</ele><time>2026-04-07T15:14:03Z</time></trkpt><trkpt lat="48.31800898893733" lon="-0.6543150472902155"><ele>150.0</ele><time>2026-04-07T15:14:05Z</time></trkpt><trkpt lat="48.317988074922766" lon="-0.6542036635249138"><ele>150.0</ele><time>2026-04-07T15:14:07Z</time></trkpt><trkpt lat="48.31798188218045" lon="-0.6540913216644294"><ele>149.7142857142857</ele><time>2026-04-07T15:14:09Z</time></trkpt><trkpt lat="48.317968772520125" lon="-0.6539848642279759"><ele>149.42857142857142</ele><time>2026-04-07T15:14:11Z</time></trkpt><trkpt lat="48.317948388053125" lon="-0.6538723253937522"><ele>149.14285714285714</ele><time>2026-04-07T15:14:13Z</time></trkpt><trkpt lat="48.31793274317403" lon="-0.6537671404435359"><ele>148.85714285714283</ele><time>2026-04-07T15:14:15Z</time></trkpt><trkpt lat="48.31791030138462" lon="-0.6536471288610798"><ele>148.57142857142856</ele><time>2026-04-07T15:14:17Z</time></trkpt><trkpt lat="48.31788741960443" lon="-0.6535467157208985"><ele>148.28571428571428</ele><time>2026-04-07T15:14:19Z</time></trkpt><trkpt lat="48.31787962240262" lon="-0.6534449741543881"><ele>148.0</ele><time>2026-04-07T15:14:21Z</time></trkpt><trkpt lat="48.317859548348714" lon="-0.6533400730115184"><ele>148.0</ele><time>2026-04-07T15:14:23Z</time></trkpt><trkpt lat="48.31781659918972" lon="-0.653250687448191"><ele>148.0</ele><time>2026-04-07T15:14:25Z</time></trkpt><trkpt lat="48.317785175203014" lon="-0.6531645128017146"><ele>148.0</ele><time>2026-04-07T15:14:27Z</time></trkpt><trkpt lat="48.31775916318913" lon="-0.6530770851341174"><ele>148.0</ele><time>2026-04-07T15:14:29Z</time></trkpt><trkpt lat="48.317660018334564" lon="-0.6530546692033204"><ele>148.0</ele><time>2026-04-07T15:14:32Z</time></trkpt><trkpt lat="48.3175874426237" lon="-0.6531231432884966"><ele>148.0</ele><time>2026-04-07T15:14:34Z</time></trkpt><trkpt lat="48.31752842651679" lon="-0.6531947186067336"><ele>148.0</ele><time>2026-04-07T15:14:36Z</time></trkpt><trkpt lat="48.31747675574944" lon="-0.6532557328842522"><ele>148.0</ele><time>2026-04-07T15:14:38Z</time></trkpt><trkpt lat="48.31740693710931" lon="-0.6532883442209947"><ele>148.0</ele><time>2026-04-07T15:14:40Z</time></trkpt><trkpt lat="48.31735140821165" lon="-0.6533333298774446"><ele>148.0</ele><time>2026-04-07T15:14:42Z</time></trkpt><trkpt lat="48.31728815343343" lon="-0.6533940531859982"><ele>148.0</ele><time>2026-04-07T15:14:44Z</time></trkpt><trkpt lat="48.3172228981014" lon="-0.6534539600139763"><ele>148.0</ele><time>2026-04-07T15:14:46Z</time></trkpt><trkpt lat="48.31716761562145" lon="-0.6535269532125292"><ele>148.0</ele><time>2026-04-07T15:14:48Z</time></trkpt><trkpt lat="48.31709804947599" lon="-0.6535678838495521"><ele>147.57142857142858</ele><time>2026-04-07T15:14:50Z</time></trkpt><trkpt lat="48.31703990592087" lon="-0.6535295233364392"><ele>147.14285714285714</ele><time>2026-04-07T15:14:52Z</time></trkpt><trkpt lat="48.31697082437363" lon="-0.6534824026977596"><ele>146.71428571428572</ele><time>2026-04-07T15:14:54Z</time></trkpt><trkpt lat="48.31690949362086" lon="-0.6534189404540119"><ele>146.28571428571428</ele><time>2026-04-07T15:14:56Z</time></trkpt><trkpt lat="48.31680903441941" lon="-0.6533954420315213"><ele>145.85714285714286</ele><time>2026-04-07T15:14:59Z</time></trkpt><trkpt lat="48.31675664799334" lon="-0.6533404689456109"><ele>145.42857142857144</ele><time>2026-04-07T15:15:01Z</time></trkpt><trkpt lat="48.31670255947948" lon="-0.6532796651430379"><ele>145.0</ele><time>2026-04-07T15:15:03Z</time></trkpt><trkpt lat="48.316640214619746" lon="-0.6532067907925513"><ele>145.0</ele><time>2026-04-07T15:15:05Z</time></trkpt><trkpt lat="48.316593537422115" lon="-0.6531395200131054"><ele>145.0</ele><time>2026-04-07T15:15:07Z</time></trkpt><trkpt lat="48.31653835822368" lon="-0.6530903573382012"><ele>145.0</ele><time>2026-04-07T15:15:09Z</time></trkpt><trkpt lat="48.316484608777806" lon="-0.6530348540263992"><ele>145.0</ele><time>2026-04-07T15:15:11Z</time></trkpt><trkpt lat="48.316430438052535" lon="-0.6529511308084943"><ele>145.0</ele><time>2026-04-07T15:15:14Z</time></trkpt><trkpt lat="48.31636790958214" lon="-0.6529662787874536"><ele>145.0</ele><time>2026-04-07T15:15:16Z</time></trkpt><trkpt lat="48.31630457417403" lon="-0.6530134767725257"><ele>145.0</ele><time>2026-04-07T15:15:18Z</time></trkpt><trkpt lat="48.31624051914758" lon="-0.653046573106329"><ele>144.85714285714286</ele><time>2026-04-07T15:15:20Z</time></trkpt><trkpt lat="48.31617216971506" lon="-0.6530394744660861"><ele>144.71428571428572</ele><time>2026-04-07T15:15:22Z</time></trkpt><trkpt lat="48.31610868781258" lon="-0.6530735245107692"><ele>144.57142857142858</ele><time>2026-04-07T15:15:24Z</time></trkpt><trkpt lat="48.31604574649282" lon="-0.6531137764511495"><ele>144.42857142857144</ele><time>2026-04-07T15:15:26Z</time></trkpt><trkpt lat="48.31598590283685" lon="-0.6531614758662094"><ele>144.28571428571428</ele><time>2026-04-07T15:15:28Z</time></trkpt><trkpt lat="48.315926398830584" lon="-0.6532020918703756"><ele>144.14285714285717</ele><time>2026-04-07T15:15:30Z</time></trkpt><trkpt lat="48.315864390727256" lon="-0.6532350612787958"><ele>144.0</ele><time>2026-04-07T15:15:32Z</time></trkpt><trkpt lat="48.315804874933825" lon="-0.6532711729145693"><ele>144.0</ele><time>2026-04-07T15:15:34Z</time></trkpt><trkpt lat="48.315723007383184" lon="-0.6533115331715891"><ele>144.0</ele><time>2026-04-07T15:15:37Z</time></trkpt><trkpt lat="48.31566642472905" lon="-0.6533608671432445"><ele>144.0</ele><time>2026-04-07T15:15:39Z</time></trkpt><trkpt lat="48.31557060051647" lon="-0.6534146959775258"><ele>144.0</ele><time>2026-04-07T15:15:42Z</time></trkpt><trkpt lat="48.31550313462669" lon="-0.6534594317779191"><ele>144.0</ele><time>2026-04-07T15:15:44Z</time></trkpt><trkpt lat="48.315414844800216" lon="-0.6535065609917228"><ele>144.0</ele><time>2026-04-07T15:15:47Z</time></trkpt><trkpt lat="48.3153169823174" lon="-0.6535257901951822"><ele>144.0</ele><time>2026-04-07T15:15:50Z</time></trkpt><trkpt lat="48.31525432010045" lon="-0.6535552894835084"><ele>144.0</ele><time>2026-04-07T15:15:52Z</time></trkpt><trkpt lat="48.31519050552712" lon="-0.6535914746976869"><ele>144.0</ele><time>2026-04-07T15:15:54Z</time></trkpt><trkpt lat="48.31512959861051" lon="-0.6536424219226621"><ele>144.0</ele><time>2026-04-07T15:15:56Z</time></trkpt><trkpt lat="48.315035416556675" lon="-0.6537026268896217"><ele>144.0</ele><time>2026-04-07T15:15:59Z</time></trkpt><trkpt lat="48.314944778279084" lon="-0.6537337822668514"><ele>144.0</ele><time>2026-04-07T15:16:02Z</time></trkpt><trkpt lat="48.314882177212056" lon="-0.6537592824772298"><ele>144.00000000000003</ele><time>2026-04-07T15:16:04Z</time></trkpt><trkpt lat="48.3148232346581" lon="-0.6537982679156406"><ele>144.0</ele><time>2026-04-07T15:16:06Z</time></trkpt><trkpt lat="48.31475902446519" lon="-0.6538362751994102"><ele>144.0</ele><time>2026-04-07T15:16:08Z</time></trkpt><trkpt lat="48.314674500907635" lon="-0.6538789304196517"><ele>144.0</ele><time>2026-04-07T15:16:11Z</time></trkpt><trkpt lat="48.3146118881825" lon="-0.6539081948496284"><ele>144.0</ele><time>2026-04-07T15:16:13Z</time></trkpt><trkpt lat="48.31455199653854" lon="-0.6539480065369927"><ele>144.00000000000003</ele><time>2026-04-07T15:16:15Z</time></trkpt><trkpt lat="48.31449179313422" lon="-0.6539797348981117"><ele>144.0</ele><time>2026-04-07T15:16:17Z</time></trkpt><trkpt lat="48.31443173048197" lon="-0.65402155567226"><ele>144.14285714285717</ele><time>2026-04-07T15:16:19Z</time></trkpt><trkpt lat="48.31436083203151" lon="-0.6540445088320531"><ele>144.28571428571428</ele><time>2026-04-07T15:16:21Z</time></trkpt><trkpt lat="48.31429307531731" lon="-0.6540913265136785"><ele>144.42857142857144</ele><time>2026-04-07T15:16:23Z</time></trkpt><trkpt lat="48.31422978082153" lon="-0.6541197443310768"><ele>144.57142857142858</ele><time>2026-04-07T15:16:25Z</time></trkpt><trkpt lat="48.31416055953123" lon="-0.6541535493677582"><ele>144.71428571428572</ele><time>2026-04-07T15:16:27Z</time></trkpt><trkpt lat="48.31408203925633" lon="-0.6541806086097386"><ele>144.85714285714286</ele><time>2026-04-07T15:16:30Z</time></trkpt><trkpt lat="48.3140206773475" lon="-0.6542126451641005"><ele>145.0</ele><time>2026-04-07T15:16:32Z</time></trkpt><trkpt lat="48.31395465944468" lon="-0.6542344058550973"><ele>144.83333333333334</ele><time>2026-04-07T15:16:34Z</time></trkpt><trkpt lat="48.3138897159571" lon="-0.6542323090018088"><ele>144.66666666666669</ele><time>2026-04-07T15:16:36Z</time></trkpt><trkpt lat="48.3138239097038" lon="-0.654211551719076"><ele>144.5</ele><time>2026-04-07T15:16:38Z</time></trkpt><trkpt lat="48.31372125406764" lon="-0.6541964587936733"><ele>144.33333333333334</ele><time>2026-04-07T15:16:41Z</time></trkpt><trkpt lat="48.31365725985857" lon="-0.6541997911848548"><ele>144.16666666666666</ele><time>2026-04-07T15:16:43Z</time></trkpt><trkpt lat="48.31359996825736" lon="-0.6541520189330783"><ele>144.0</ele><time>2026-04-07T15:16:45Z</time></trkpt><trkpt lat="48.313515479670315" lon="-0.6541345948586823"><ele>144.0</ele><time>2026-04-07T15:16:48Z</time></trkpt><trkpt lat="48.31343604370155" lon="-0.6540829930502924"><ele>144.0</ele><time>2026-04-07T15:16:51Z</time></trkpt><trkpt lat="48.3133619777652" lon="-0.6540306051813569"><ele>144.0</ele><time>2026-04-07T15:16:54Z</time></trkpt><trkpt lat="48.31331556513133" lon="-0.6539653863735814"><ele>144.0</ele><time>2026-04-07T15:16:56Z</time></trkpt><trkpt lat="48.31323150185536" lon="-0.6539250310415319"><ele>144.0</ele><time>2026-04-07T15:16:59Z</time></trkpt><trkpt lat="48.31315205583764" lon="-0.6538694041034335"><ele>144.0</ele><time>2026-04-07T15:17:02Z</time></trkpt><trkpt lat="48.31309718313525" lon="-0.6538190798923966"><ele>144.33333333333334</ele><time>2026-04-07T15:17:05Z</time></trkpt><trkpt lat="48.313025586300306" lon="-0.6537778750887915"><ele>144.66666666666666</ele><time>2026-04-07T15:17:08Z</time></trkpt><trkpt lat="48.31295027861323" lon="-0.6537823772442393"><ele>145.0</ele><time>2026-04-07T15:17:10Z</time></trkpt><trkpt lat="48.31290437009138" lon="-0.6538574585499647"><ele>145.33333333333331</ele><time>2026-04-07T15:17:12Z</time></trkpt><trkpt lat="48.312821490876395" lon="-0.6539239300027266"><ele>145.66666666666666</ele><time>2026-04-07T15:17:14Z</time></trkpt><trkpt lat="48.31274244501644" lon="-0.653958531854293"><ele>146.0</ele><time>2026-04-07T15:17:17Z</time></trkpt><trkpt lat="48.31265911708072" lon="-0.653886867324936"><ele>146.0</ele><time>2026-04-07T15:17:20Z</time></trkpt><trkpt lat="48.31259073023018" lon="-0.6538260667163082"><ele>146.0</ele><time>2026-04-07T15:17:23Z</time></trkpt><trkpt lat="48.31250478441614" lon="-0.6538097615728844"><ele>146.0</ele><time>2026-04-07T15:17:26Z</time></trkpt><trkpt lat="48.312417241446894" lon="-0.653789356244341"><ele>146.0</ele><time>2026-04-07T15:17:29Z</time></trkpt><trkpt lat="48.31235609789701" lon="-0.6537655707656241"><ele>146.0</ele><time>2026-04-07T15:17:31Z</time></trkpt><trkpt lat="48.31227993130162" lon="-0.6537462722399875"><ele>146.0</ele><time>2026-04-07T15:17:34Z</time></trkpt><trkpt lat="48.31221661893597" lon="-0.6537341685915615"><ele>146.33333333333331</ele><time>2026-04-07T15:17:36Z</time></trkpt><trkpt lat="48.31214900195731" lon="-0.6537211800535684"><ele>146.66666666666666</ele><time>2026-04-07T15:17:38Z</time></trkpt><trkpt lat="48.31206487511043" lon="-0.6537137994294502"><ele>147.0</ele><time>2026-04-07T15:17:41Z</time></trkpt><trkpt lat="48.31197133265762" lon="-0.6537135650568023"><ele>147.33333333333334</ele><time>2026-04-07T15:17:44Z</time></trkpt><trkpt lat="48.311895060242385" lon="-0.6537368254326131"><ele>147.66666666666669</ele><time>2026-04-07T15:17:47Z</time></trkpt><trkpt lat="48.31181002471859" lon="-0.6537482342515021"><ele>148.0</ele><time>2026-04-07T15:17:50Z</time></trkpt><trkpt lat="48.31173223269607" lon="-0.6537477903463941"><ele>148.0</ele><time>2026-04-07T15:17:53Z</time></trkpt><trkpt lat="48.31164058276285" lon="-0.6537553358031705"><ele>148.0</ele><time>2026-04-07T15:17:56Z</time></trkpt><trkpt lat="48.311577828948096" lon="-0.6537788250145942"><ele>148.0</ele><time>2026-04-07T15:17:58Z</time></trkpt><trkpt lat="48.311494173762945" lon="-0.6537693095663708"><ele>148.0</ele><time>2026-04-07T15:18:01Z</time></trkpt><trkpt lat="48.311413708357726" lon="-0.6537865627061793"><ele>148.0</ele><time>2026-04-07T15:18:04Z</time></trkpt><trkpt lat="48.31132331905033" lon="-0.6537837734189471"><ele>148.0</ele><time>2026-04-07T15:18:07Z</time></trkpt><trkpt lat="48.31124122176481" lon="-0.653792015582984"><ele>148.14285714285714</ele><time>2026-04-07T15:18:10Z</time></trkpt><trkpt lat="48.31115429384231" lon="-0.6538114828006005"><ele>148.28571428571428</ele><time>2026-04-07T15:18:13Z</time></trkpt><trkpt lat="48.311101673338435" lon="-0.6537455760974658"><ele>148.42857142857142</ele><time>2026-04-07T15:18:18Z</time></trkpt><trkpt lat="48.31108485776048" lon="-0.6536434007398703"><ele>148.57142857142856</ele><time>2026-04-07T15:18:20Z</time></trkpt><trkpt lat="48.3110288472949" lon="-0.6535899792147573"><ele>148.7142857142857</ele><time>2026-04-07T15:18:22Z</time></trkpt><trkpt lat="48.310951208949284" lon="-0.6535970411576284"><ele>148.85714285714286</ele><time>2026-04-07T15:18:24Z</time></trkpt><trkpt lat="48.31088770852981" lon="-0.6535967289827977"><ele>149.0</ele><time>2026-04-07T15:18:26Z</time></trkpt><trkpt lat="48.310790225866995" lon="-0.6535956662309501"><ele>149.0</ele><time>2026-04-07T15:18:29Z</time></trkpt><trkpt lat="48.31072286307427" lon="-0.653592692730513"><ele>149.0</ele><time>2026-04-07T15:18:31Z</time></trkpt><trkpt lat="48.310658755126866" lon="-0.6535894261538182"><ele>149.0</ele><time>2026-04-07T15:18:33Z</time></trkpt><trkpt lat="48.31056923563364" lon="-0.6535954921711777"><ele>149.0</ele><time>2026-04-07T15:18:36Z</time></trkpt><trkpt lat="48.31047957900166" lon="-0.6536002095081624"><ele>149.0</ele><time>2026-04-07T15:18:39Z</time></trkpt><trkpt lat="48.31039092683256" lon="-0.6535938965238172"><ele>149.0</ele><time>2026-04-07T15:18:42Z</time></trkpt><trkpt lat="48.31030294897743" lon="-0.6535955730462464"><ele>149.0</ele><time>2026-04-07T15:18:45Z</time></trkpt><trkpt lat="48.31021431177566" lon="-0.653592221937662"><ele>149.0</ele><time>2026-04-07T15:18:48Z</time></trkpt><trkpt lat="48.310131176617844" lon="-0.6535958729629152"><ele>149.0</ele><time>2026-04-07T15:18:51Z</time></trkpt><trkpt lat="48.31004714729833" lon="-0.65358937620145"><ele>149.0</ele><time>2026-04-07T15:18:54Z</time></trkpt><trkpt lat="48.3099649009528" lon="-0.6535946351900582"><ele>149.0</ele><time>2026-04-07T15:18:57Z</time></trkpt><trkpt lat="48.30988543293249" lon="-0.6535880320989792"><ele>149.0</ele><time>2026-04-07T15:19:00Z</time></trkpt><trkpt lat="48.30980560758095" lon="-0.6535953771548896"><ele>149.66666666666666</ele><time>2026-04-07T15:19:03Z</time></trkpt><trkpt lat="48.309741610839346" lon="-0.6536082890046085"><ele>150.33333333333331</ele><time>2026-04-07T15:19:05Z</time></trkpt><trkpt lat="48.3096535092531" lon="-0.6535971570739215"><ele>151.0</ele><time>2026-04-07T15:19:08Z</time></trkpt><trkpt lat="48.3095884581047" lon="-0.6535760621966662"><ele>151.66666666666666</ele><time>2026-04-07T15:19:10Z</time></trkpt><trkpt lat="48.3095032288576" lon="-0.6535552599447527"><ele>152.33333333333334</ele><time>2026-04-07T15:19:13Z</time></trkpt><trkpt lat="48.309424590004376" lon="-0.6535157378616034"><ele>153.0</ele><time>2026-04-07T15:19:16Z</time></trkpt><trkpt lat="48.30934359681285" lon="-0.6534845555395749"><ele>153.0</ele><time>2026-04-07T15:19:19Z</time></trkpt><trkpt lat="48.30925658807698" lon="-0.6534356686258534"><ele>153.0</ele><time>2026-04-07T15:19:22Z</time></trkpt><trkpt lat="48.309188405166324" lon="-0.6533600584779836"><ele>153.0</ele><time>2026-04-07T15:19:25Z</time></trkpt><trkpt lat="48.30914066667563" lon="-0.6532477104600823"><ele>153.0</ele><time>2026-04-07T15:19:28Z</time></trkpt><trkpt lat="48.30909393200196" lon="-0.6531501519161903"><ele>153.0</ele><time>2026-04-07T15:19:31Z</time></trkpt><trkpt lat="48.30905446212256" lon="-0.6530743981605192"><ele>153.0</ele><time>2026-04-07T15:19:33Z</time></trkpt><trkpt lat="48.30900127032864" lon="-0.6529750756714636"><ele>153.0</ele><time>2026-04-07T15:19:36Z</time></trkpt><trkpt lat="48.30892663560551" lon="-0.6529592143725726"><ele>153.0</ele><time>2026-04-07T15:19:39Z</time></trkpt><trkpt lat="48.308863156666696" lon="-0.65302291353258"><ele>153.0</ele><time>2026-04-07T15:19:42Z</time></trkpt><trkpt lat="48.30878667309458" lon="-0.6530361533030496"><ele>153.0</ele><time>2026-04-07T15:19:44Z</time></trkpt><trkpt lat="48.308729109631614" lon="-0.65309090338714"><ele>153.0</ele><time>2026-04-07T15:19:46Z</time></trkpt><trkpt lat="48.30867310446971" lon="-0.6531549614606283"><ele>153.0</ele><time>2026-04-07T15:19:48Z</time></trkpt><trkpt lat="48.308639025963814" lon="-0.6532405226146216"><ele>153.0</ele><time>2026-04-07T15:19:50Z</time></trkpt><trkpt lat="48.308568773362225" lon="-0.6533417999764718"><ele>153.66666666666666</ele><time>2026-04-07T15:19:53Z</time></trkpt><trkpt lat="48.30849185906023" lon="-0.6533835295077597"><ele>154.33333333333334</ele><time>2026-04-07T15:19:56Z</time></trkpt><trkpt lat="48.30840692892962" lon="-0.6534139467436786"><ele>155.0</ele><time>2026-04-07T15:19:59Z</time></trkpt><trkpt lat="48.308324632051246" lon="-0.653426393624523"><ele>155.66666666666669</ele><time>2026-04-07T15:20:02Z</time></trkpt><trkpt lat="48.30823582995206" lon="-0.6534316486973862"><ele>156.33333333333334</ele><time>2026-04-07T15:20:05Z</time></trkpt><trkpt lat="48.30815494214972" lon="-0.6534294687677233"><ele>157.0</ele><time>2026-04-07T15:20:08Z</time></trkpt><trkpt lat="48.308089429049446" lon="-0.6534354886080338"><ele>157.5</ele><time>2026-04-07T15:20:10Z</time></trkpt><trkpt lat="48.308004967649886" lon="-0.6534431374396036"><ele>158.0</ele><time>2026-04-07T15:20:13Z</time></trkpt><trkpt lat="48.30791689757112" lon="-0.6534371508066896"><ele>158.5</ele><time>2026-04-07T15:20:16Z</time></trkpt><trkpt lat="48.30783029692124" lon="-0.6534276438750688"><ele>159.0</ele><time>2026-04-07T15:20:19Z</time></trkpt><trkpt lat="48.307738157060776" lon="-0.6534184963567186"><ele>159.5</ele><time>2026-04-07T15:20:22Z</time></trkpt><trkpt lat="48.30764681898842" lon="-0.653407774381364"><ele>160.0</ele><time>2026-04-07T15:20:25Z</time></trkpt><trkpt lat="48.30756398187622" lon="-0.653390964368663"><ele>160.0</ele><time>2026-04-07T15:20:28Z</time></trkpt><trkpt lat="48.30747514933425" lon="-0.6533813052842596"><ele>160.0</ele><time>2026-04-07T15:20:31Z</time></trkpt><trkpt lat="48.3073924922652" lon="-0.6533705644153663"><ele>160.0</ele><time>2026-04-07T15:20:34Z</time></trkpt><trkpt lat="48.307328086971275" lon="-0.6533532931485144"><ele>160.0</ele><time>2026-04-07T15:20:38Z</time></trkpt><trkpt lat="48.30725558194788" lon="-0.6533438663442157"><ele>160.0</ele><time>2026-04-07T15:20:42Z</time></trkpt><trkpt lat="48.30718050516792" lon="-0.6533275161182992"><ele>160.0</ele><time>2026-04-07T15:20:47Z</time></trkpt><trkpt lat="48.30711066405124" lon="-0.6533394694057888"><ele>160.14285714285714</ele><time>2026-04-07T15:20:51Z</time></trkpt><trkpt lat="48.307040987696105" lon="-0.6532881298892222"><ele>160.28571428571428</ele><time>2026-04-07T15:20:58Z</time></trkpt><trkpt lat="48.30697529416893" lon="-0.6532613103314153"><ele>160.42857142857144</ele><time>2026-04-07T15:21:03Z</time></trkpt><trkpt lat="48.30690960642297" lon="-0.6532409720031201"><ele>160.57142857142856</ele><time>2026-04-07T15:21:08Z</time></trkpt><trkpt lat="48.306843472773714" lon="-0.6532065842258844"><ele>160.71428571428572</ele><time>2026-04-07T15:21:13Z</time></trkpt><trkpt lat="48.306775240048744" lon="-0.6531702641755948"><ele>160.85714285714286</ele><time>2026-04-07T15:21:19Z</time></trkpt><trkpt lat="48.30671017648114" lon="-0.6531351438293227"><ele>161.0</ele><time>2026-04-07T15:21:24Z</time></trkpt><trkpt lat="48.306645388268485" lon="-0.6530987259630558"><ele>161.0</ele><time>2026-04-07T15:21:29Z</time></trkpt><trkpt lat="48.30658418411164" lon="-0.6530704979457314"><ele>161.0</ele><time>2026-04-07T15:21:34Z</time></trkpt><trkpt lat="48.30652295533756" lon="-0.65304521746969"><ele>161.0</ele><time>2026-04-07T15:21:39Z</time></trkpt><trkpt lat="48.306450110078195" lon="-0.6529974847440043"><ele>161.0</ele><time>2026-04-07T15:21:44Z</time></trkpt><trkpt lat="48.306383111888174" lon="-0.6529789205850555"><ele>161.0</ele><time>2026-04-07T15:21:49Z</time></trkpt><trkpt lat="48.30631151418172" lon="-0.6529398421582158"><ele>161.0</ele><time>2026-04-07T15:21:54Z</time></trkpt><trkpt lat="48.30624717478092" lon="-0.6528908311107839"><ele>161.0</ele><time>2026-04-07T15:21:59Z</time></trkpt><trkpt lat="48.30617864275024" lon="-0.6528529355723542"><ele>160.83333333333331</ele><time>2026-04-07T15:22:03Z</time></trkpt><trkpt lat="48.30609589070989" lon="-0.6528283513335056"><ele>160.66666666666666</ele><time>2026-04-07T15:22:05Z</time></trkpt><trkpt lat="48.306019285185506" lon="-0.6528023165910223"><ele>160.5</ele><time>2026-04-07T15:22:07Z</time></trkpt><trkpt lat="48.305957338636716" lon="-0.6527529160322603"><ele>160.33333333333334</ele><time>2026-04-07T15:22:10Z</time></trkpt><trkpt lat="48.30585312936465" lon="-0.6527023153608172"><ele>160.16666666666669</ele><time>2026-04-07T15:22:13Z</time></trkpt><trkpt lat="48.30579005989148" lon="-0.6526687868660458"><ele>160.0</ele><time>2026-04-07T15:22:15Z</time></trkpt><trkpt lat="48.30572569868462" lon="-0.6526328944344142"><ele>160.0</ele><time>2026-04-07T15:22:17Z</time></trkpt><trkpt lat="48.30566332505245" lon="-0.6525991963096798"><ele>160.0</ele><time>2026-04-07T15:22:19Z</time></trkpt><trkpt lat="48.30560149162285" lon="-0.652566850622597"><ele>160.0</ele><time>2026-04-07T15:22:21Z</time></trkpt><trkpt lat="48.30553579496787" lon="-0.652533431641615"><ele>160.0</ele><time>2026-04-07T15:22:23Z</time></trkpt><trkpt lat="48.30547644871401" lon="-0.6524997255132143"><ele>160.0</ele><time>2026-04-07T15:22:25Z</time></trkpt><trkpt lat="48.30542030632404" lon="-0.6524501393629636"><ele>160.0</ele><time>2026-04-07T15:22:27Z</time></trkpt><trkpt lat="48.305357777331075" lon="-0.6524115817372377"><ele>160.0</ele><time>2026-04-07T15:22:29Z</time></trkpt><trkpt lat="48.30528952355731" lon="-0.6523781399331253"><ele>159.71428571428572</ele><time>2026-04-07T15:22:31Z</time></trkpt><trkpt lat="48.305211643386464" lon="-0.6523166853675207"><ele>159.42857142857144</ele><time>2026-04-07T15:22:34Z</time></trkpt><trkpt lat="48.305157737310296" lon="-0.6522627930671038"><ele>159.14285714285717</ele><time>2026-04-07T15:22:36Z</time></trkpt><trkpt lat="48.305126233053166" lon="-0.6521805399252509"><ele>158.85714285714286</ele><time>2026-04-07T15:22:38Z</time></trkpt><trkpt lat="48.30511266936931" lon="-0.6520872955669065"><ele>158.57142857142858</ele><time>2026-04-07T15:22:40Z</time></trkpt><trkpt lat="48.30512621918913" lon="-0.6519914591274499"><ele>158.2857142857143</ele><time>2026-04-07T15:22:42Z</time></trkpt><trkpt lat="48.305148357321855" lon="-0.6518517848317081"><ele>158.0</ele><time>2026-04-07T15:22:45Z</time></trkpt><trkpt lat="48.30515561365165" lon="-0.6517231708749553"><ele>158.0</ele><time>2026-04-07T15:22:48Z</time></trkpt><trkpt lat="48.30515774564007" lon="-0.6515966239409553"><ele>158.0</ele><time>2026-04-07T15:22:51Z</time></trkpt><trkpt lat="48.305172563246195" lon="-0.6514633633454112"><ele>158.0</ele><time>2026-04-07T15:22:54Z</time></trkpt><trkpt lat="48.30519490811326" lon="-0.6513281644594683"><ele>158.0</ele><time>2026-04-07T15:22:57Z</time></trkpt><trkpt lat="48.30520704294749" lon="-0.6512042925065777"><ele>158.0</ele><time>2026-04-07T15:23:00Z</time></trkpt><trkpt lat="48.305194150982565" lon="-0.6510672253557084"><ele>158.0</ele><time>2026-04-07T15:23:03Z</time></trkpt><trkpt lat="48.30517842431832" lon="-0.6509665532742773"><ele>158.16666666666666</ele><time>2026-04-07T15:23:05Z</time></trkpt><trkpt lat="48.30516171654998" lon="-0.6508299933854061"><ele>158.33333333333331</ele><time>2026-04-07T15:23:08Z</time></trkpt><trkpt lat="48.30512717685211" lon="-0.6506951405515701"><ele>158.5</ele><time>2026-04-07T15:23:11Z</time></trkpt><trkpt lat="48.30510257756518" lon="-0.6505651702904306"><ele>158.66666666666666</ele><time>2026-04-07T15:23:14Z</time></trkpt><trkpt lat="48.30507714232977" lon="-0.6504725430062177"><ele>158.83333333333334</ele><time>2026-04-07T15:23:16Z</time></trkpt><trkpt lat="48.30505298109089" lon="-0.6503349167177256"><ele>159.0</ele><time>2026-04-07T15:23:19Z</time></trkpt><trkpt lat="48.30502972493903" lon="-0.6502457129133015"><ele>159.14285714285714</ele><time>2026-04-07T15:23:21Z</time></trkpt><trkpt lat="48.30500327236133" lon="-0.6501374482665596"><ele>159.2857142857143</ele><time>2026-04-07T15:23:25Z</time></trkpt><trkpt lat="48.30496987069212" lon="-0.6500402461473362"><ele>159.42857142857144</ele><time>2026-04-07T15:23:31Z</time></trkpt><trkpt lat="48.30493556509857" lon="-0.6499465536190024"><ele>159.57142857142856</ele><time>2026-04-07T15:23:36Z</time></trkpt><trkpt lat="48.30491492567986" lon="-0.6498531964077049"><ele>159.71428571428572</ele><time>2026-04-07T15:23:41Z</time></trkpt><trkpt lat="48.30489659703279" lon="-0.6497609224590112"><ele>159.85714285714286</ele><time>2026-04-07T15:23:45Z</time></trkpt><trkpt lat="48.304874711074376" lon="-0.6496676709596828"><ele>160.0</ele><time>2026-04-07T15:23:49Z</time></trkpt><trkpt lat="48.30485694910109" lon="-0.6495650756541707"><ele>160.0</ele><time>2026-04-07T15:23:54Z</time></trkpt><trkpt lat="48.30483319282342" lon="-0.6494664982119408"><ele>160.0</ele><time>2026-04-07T15:23:59Z</time></trkpt><trkpt lat="48.30481259541936" lon="-0.6493751366827939"><ele>160.0</ele><time>2026-04-07T15:24:05Z</time></trkpt><trkpt lat="48.30481555765121" lon="-0.6492601874052936"><ele>160.0</ele><time>2026-04-07T15:24:09Z</time></trkpt><trkpt lat="48.30479991497971" lon="-0.6491573963189684"><ele>160.0</ele><time>2026-04-07T15:24:14Z</time></trkpt><trkpt lat="48.30478641119906" lon="-0.6490600102234794"><ele>160.0</ele><time>2026-04-07T15:24:19Z</time></trkpt><trkpt lat="48.30477186979306" lon="-0.6489637217241045"><ele>160.0</ele><time>2026-04-07T15:24:24Z</time></trkpt><trkpt lat="48.304759224896955" lon="-0.6488507438870811"><ele>160.0</ele><time>2026-04-07T15:24:29Z</time></trkpt><trkpt lat="48.30476556078183" lon="-0.6487396540376851"><ele>160.0</ele><time>2026-04-07T15:24:34Z</time></trkpt><trkpt lat="48.30475086096205" lon="-0.6486324384854631"><ele>160.0</ele><time>2026-04-07T15:24:39Z</time></trkpt><trkpt lat="48.304750974971085" lon="-0.6485221607175088"><ele>160.0</ele><time>2026-04-07T15:24:44Z</time></trkpt><trkpt lat="48.30475180264315" lon="-0.6484240305377771"><ele>160.0</ele><time>2026-04-07T15:24:48Z</time></trkpt><trkpt lat="48.30474141843314" lon="-0.6483291624159427"><ele>160.0</ele><time>2026-04-07T15:24:52Z</time></trkpt><trkpt lat="48.30472966779713" lon="-0.6482178207559244"><ele>160.0</ele><time>2026-04-07T15:24:57Z</time></trkpt><trkpt lat="48.3047174434576" lon="-0.6481233976899341"><ele>159.85714285714286</ele><time>2026-04-07T15:25:01Z</time></trkpt><trkpt lat="48.30470428181406" lon="-0.6480140716035765"><ele>159.71428571428572</ele><time>2026-04-07T15:25:07Z</time></trkpt><trkpt lat="48.30469916541381" lon="-0.6479007591363795"><ele>159.57142857142856</ele><time>2026-04-07T15:25:12Z</time></trkpt><trkpt lat="48.30470503676782" lon="-0.6477847787204786"><ele>159.42857142857144</ele><time>2026-04-07T15:25:17Z</time></trkpt><trkpt lat="48.3046844657362" lon="-0.647693375959832"><ele>159.2857142857143</ele><time>2026-04-07T15:25:21Z</time></trkpt><trkpt lat="48.30467329226445" lon="-0.647584392884824"><ele>159.14285714285714</ele><time>2026-04-07T15:25:26Z</time></trkpt><trkpt lat="48.3046626003958" lon="-0.6474688784121052"><ele>159.0</ele><time>2026-04-07T15:25:32Z</time></trkpt><trkpt lat="48.30464610514887" lon="-0.6473754665695125"><ele>158.85714285714286</ele><time>2026-04-07T15:25:36Z</time></trkpt><trkpt lat="48.30462410732662" lon="-0.6472623773495957"><ele>158.71428571428572</ele><time>2026-04-07T15:25:41Z</time></trkpt><trkpt lat="48.30459916728419" lon="-0.6471532585381145"><ele>158.57142857142858</ele><time>2026-04-07T15:25:46Z</time></trkpt><trkpt lat="48.30459145119256" lon="-0.6470572728518096"><ele>158.42857142857144</ele><time>2026-04-07T15:25:50Z</time></trkpt><trkpt lat="48.30457152149193" lon="-0.6469461670584725"><ele>158.28571428571428</ele><time>2026-04-07T15:25:55Z</time></trkpt><trkpt lat="48.30454539437594" lon="-0.6468424135566923"><ele>158.14285714285717</ele><time>2026-04-07T15:26:00Z</time></trkpt><trkpt lat="48.30453196533827" lon="-0.6467304982508087"><ele>158.0</ele><time>2026-04-07T15:26:05Z</time></trkpt><trkpt lat="48.30450941359094" lon="-0.6466287564277613"><ele>157.85714285714286</ele><time>2026-04-07T15:26:10Z</time></trkpt><trkpt lat="48.30449168904143" lon="-0.6465224476886019"><ele>157.71428571428572</ele><time>2026-04-07T15:26:15Z</time></trkpt><trkpt lat="48.304479715633114" lon="-0.6464103606764"><ele>157.57142857142856</ele><time>2026-04-07T15:26:19Z</time></trkpt><trkpt lat="48.304461903813454" lon="-0.6463140710508484"><ele>157.42857142857144</ele><time>2026-04-07T15:26:23Z</time></trkpt><trkpt lat="48.30443375233888" lon="-0.6462038340321933"><ele>157.28571428571428</ele><time>2026-04-07T15:26:28Z</time></trkpt><trkpt lat="48.304407734218344" lon="-0.6461134280664869"><ele>157.14285714285714</ele><time>2026-04-07T15:26:32Z</time></trkpt><trkpt lat="48.30439046756484" lon="-0.646018232869114"><ele>157.0</ele><time>2026-04-07T15:26:36Z</time></trkpt><trkpt lat="48.304375384310866" lon="-0.6459260538544054"><ele>156.85714285714283</ele><time>2026-04-07T15:26:40Z</time></trkpt><trkpt lat="48.30437496842699" lon="-0.6458265895652474"><ele>156.71428571428572</ele><time>2026-04-07T15:26:44Z</time></trkpt><trkpt lat="48.30436246661346" lon="-0.6457140306628028"><ele>156.57142857142856</ele><time>2026-04-07T15:26:49Z</time></trkpt><trkpt lat="48.304350728059006" lon="-0.645617225649403"><ele>156.42857142857142</ele><time>2026-04-07T15:26:53Z</time></trkpt><trkpt lat="48.30433769409137" lon="-0.645500958638327"><ele>156.28571428571428</ele><time>2026-04-07T15:26:58Z</time></trkpt><trkpt lat="48.30433448974695" lon="-0.6453976655466395"><ele>156.14285714285714</ele><time>2026-04-07T15:27:02Z</time></trkpt><trkpt lat="48.30432930343115" lon="-0.6452683333906676"><ele>156.0</ele><time>2026-04-07T15:27:06Z</time></trkpt><trkpt lat="48.30431820717165" lon="-0.6451377447625519"><ele>155.5</ele><time>2026-04-07T15:27:09Z</time></trkpt><trkpt lat="48.30431656161289" lon="-0.6449995234980286"><ele>155.0</ele><time>2026-04-07T15:27:12Z</time></trkpt><trkpt lat="48.30431056919472" lon="-0.644891942871437"><ele>154.5</ele><time>2026-04-07T15:27:14Z</time></trkpt><trkpt lat="48.304315040547785" lon="-0.644785369351169"><ele>154.0</ele><time>2026-04-07T15:27:15Z</time></trkpt><trkpt lat="48.30431086169386" lon="-0.6446713057287663"><ele>153.5</ele><time>2026-04-07T15:27:18Z</time></trkpt><trkpt lat="48.304314163149726" lon="-0.6445179448711322"><ele>153.0</ele><time>2026-04-07T15:27:20Z</time></trkpt><trkpt lat="48.30431204893882" lon="-0.6444113606890282"><ele>152.83333333333334</ele><time>2026-04-07T15:27:22Z</time></trkpt><trkpt lat="48.30431576927828" lon="-0.6443098286535612"><ele>152.66666666666666</ele><time>2026-04-07T15:27:24Z</time></trkpt><trkpt lat="48.30430979596604" lon="-0.644197276720317"><ele>152.5</ele><time>2026-04-07T15:27:26Z</time></trkpt><trkpt lat="48.30429953078111" lon="-0.6441002013374788"><ele>152.33333333333331</ele><time>2026-04-07T15:27:27Z</time></trkpt><trkpt lat="48.30432350202454" lon="-0.6439773562732375"><ele>152.16666666666666</ele><time>2026-04-07T15:27:30Z</time></trkpt><trkpt lat="48.30431588177056" lon="-0.6438341867614337"><ele>152.0</ele><time>2026-04-07T15:27:33Z</time></trkpt><trkpt lat="48.304318212484866" lon="-0.6436876008730661"><ele>151.85714285714286</ele><time>2026-04-07T15:27:36Z</time></trkpt><trkpt lat="48.304317681029524" lon="-0.643589467129478"><ele>151.71428571428572</ele><time>2026-04-07T15:27:38Z</time></trkpt><trkpt lat="48.30430832264149" lon="-0.6434868868082505"><ele>151.57142857142858</ele><time>2026-04-07T15:27:40Z</time></trkpt><trkpt lat="48.30431023212137" lon="-0.6433887774071596"><ele>151.42857142857144</ele><time>2026-04-07T15:27:42Z</time></trkpt><trkpt lat="48.30431487138995" lon="-0.6432866353900417"><ele>151.28571428571428</ele><time>2026-04-07T15:27:44Z</time></trkpt><trkpt lat="48.30431364168203" lon="-0.6431833466024054"><ele>151.14285714285717</ele><time>2026-04-07T15:27:46Z</time></trkpt><trkpt lat="48.3043073441383" lon="-0.6430872009704213"><ele>151.0</ele><time>2026-04-07T15:27:48Z</time></trkpt><trkpt lat="48.30430784917317" lon="-0.6429880518969014"><ele>151.00000000000003</ele><time>2026-04-07T15:27:49.999Z</time></trkpt><trkpt lat="48.30430818825685" lon="-0.642884451385496"><ele>151.0</ele><time>2026-04-07T15:27:51.999Z</time></trkpt><trkpt lat="48.304291972441234" lon="-0.6427873839596107"><ele>151.0</ele><time>2026-04-07T15:27:53.999Z</time></trkpt><trkpt lat="48.304292080970264" lon="-0.6426819257368321"><ele>151.0</ele><time>2026-04-07T15:27:55.999Z</time></trkpt><trkpt lat="48.30426858118407" lon="-0.6425880185150381"><ele>151.0</ele><time>2026-04-07T15:27:57.999Z</time></trkpt><trkpt lat="48.304257297606206" lon="-0.6424939530560395"><ele>151.00000000000003</ele><time>2026-04-07T15:27:59.999Z</time></trkpt><trkpt lat="48.30425351387001" lon="-0.6423976508865729"><ele>151.0</ele><time>2026-04-07T15:28:01.999Z</time></trkpt><trkpt lat="48.304227008614525" lon="-0.6422703263191639"><ele>151.0</ele><time>2026-04-07T15:28:04.999Z</time></trkpt><trkpt lat="48.304210099296654" lon="-0.6421777320612988"><ele>151.0</ele><time>2026-04-07T15:28:06.999Z</time></trkpt><trkpt lat="48.3041933475815" lon="-0.6420821055218443"><ele>151.0</ele><time>2026-04-07T15:28:08.999Z</time></trkpt><trkpt lat="48.30417018575081" lon="-0.6419489555622773"><ele>151.0</ele><time>2026-04-07T15:28:12Z</time></trkpt><trkpt lat="48.30413760004784" lon="-0.6418176727766342"><ele>151.0</ele><time>2026-04-07T15:28:15Z</time></trkpt><trkpt lat="48.304109447241146" lon="-0.6416949209046269"><ele>151.0</ele><time>2026-04-07T15:28:18Z</time></trkpt><trkpt lat="48.30407986486866" lon="-0.6415733506151124"><ele>151.16666666666669</ele><time>2026-04-07T15:28:21Z</time></trkpt><trkpt lat="48.304066483160845" lon="-0.6414415721854603"><ele>151.33333333333334</ele><time>2026-04-07T15:28:24Z</time></trkpt><trkpt lat="48.30411497790942" lon="-0.6413710941785009"><ele>151.5</ele><time>2026-04-07T15:28:26Z</time></trkpt><trkpt lat="48.304179707888316" lon="-0.6413494506594198"><ele>151.66666666666666</ele><time>2026-04-07T15:28:28Z</time></trkpt><trkpt lat="48.30424552269058" lon="-0.6413338340952532"><ele>151.83333333333331</ele><time>2026-04-07T15:28:30Z</time></trkpt><trkpt lat="48.30433958592199" lon="-0.6413046375049581"><ele>152.0</ele><time>2026-04-07T15:28:33Z</time></trkpt><trkpt lat="48.30440511177134" lon="-0.641264182722115"><ele>152.0</ele><time>2026-04-07T15:28:35Z</time></trkpt><trkpt lat="48.304500689459196" lon="-0.6412095180986028"><ele>152.0</ele><time>2026-04-07T15:28:38Z</time></trkpt><trkpt lat="48.30457878191745" lon="-0.6411623815042364"><ele>152.0</ele><time>2026-04-07T15:28:41Z</time></trkpt><trkpt lat="48.304637177158654" lon="-0.6411252941757762"><ele>152.0</ele><time>2026-04-07T15:28:43Z</time></trkpt><trkpt lat="48.30469630130655" lon="-0.6410854238693952"><ele>152.0</ele><time>2026-04-07T15:28:45Z</time></trkpt><trkpt lat="48.304781233499256" lon="-0.6410317992561839"><ele>152.0</ele><time>2026-04-07T15:28:48Z</time></trkpt><trkpt lat="48.30486716556715" lon="-0.6409822403274151"><ele>152.0</ele><time>2026-04-07T15:28:51Z</time></trkpt><trkpt lat="48.30492661629021" lon="-0.6409509237932945"><ele>152.0</ele><time>2026-04-07T15:28:53Z</time></trkpt><trkpt lat="48.30500509505092" lon="-0.6408910531139181"><ele>152.0</ele><time>2026-04-07T15:28:56Z</time></trkpt><trkpt lat="48.305067040157994" lon="-0.6408656073512414"><ele>152.0</ele><time>2026-04-07T15:28:58Z</time></trkpt><trkpt lat="48.30512424493834" lon="-0.6408226646578159"><ele>152.0</ele><time>2026-04-07T15:29:00Z</time></trkpt><trkpt lat="48.305193015788895" lon="-0.6407879135170139"><ele>152.0</ele><time>2026-04-07T15:29:02Z</time></trkpt><trkpt lat="48.305292516446634" lon="-0.640783687941022"><ele>152.0</ele><time>2026-04-07T15:29:05Z</time></trkpt><trkpt lat="48.305376906451286" lon="-0.6407425872151931"><ele>152.0</ele><time>2026-04-07T15:29:08Z</time></trkpt><trkpt lat="48.305471763808875" lon="-0.6407365591320658"><ele>152.0</ele><time>2026-04-07T15:29:11Z</time></trkpt><trkpt lat="48.305557122307505" lon="-0.64071554792265"><ele>152.0</ele><time>2026-04-07T15:29:14Z</time></trkpt><trkpt lat="48.305626322199245" lon="-0.6407109100778255"><ele>152.0</ele><time>2026-04-07T15:29:16Z</time></trkpt><trkpt lat="48.30571700157718" lon="-0.6406974835075195"><ele>152.0</ele><time>2026-04-07T15:29:19Z</time></trkpt><trkpt lat="48.30581144576484" lon="-0.6407010678137266"><ele>151.5</ele><time>2026-04-07T15:29:22Z</time></trkpt><trkpt lat="48.305896370619294" lon="-0.6407024866046446"><ele>151.0</ele><time>2026-04-07T15:29:25Z</time></trkpt><trkpt lat="48.305982211359776" lon="-0.6406897633342817"><ele>150.5</ele><time>2026-04-07T15:29:28Z</time></trkpt><trkpt lat="48.30605334507475" lon="-0.6407139626588592"><ele>150.0</ele><time>2026-04-07T15:29:30Z</time></trkpt><trkpt lat="48.306146804355066" lon="-0.640729380418947"><ele>149.5</ele><time>2026-04-07T15:29:33Z</time></trkpt><trkpt lat="48.306210251631086" lon="-0.6407455816304874"><ele>149.0</ele><time>2026-04-07T15:29:35Z</time></trkpt><trkpt lat="48.306297152526106" lon="-0.6407740304556722"><ele>149.0</ele><time>2026-04-07T15:29:38Z</time></trkpt><trkpt lat="48.30638244808231" lon="-0.6407978425356735"><ele>149.0</ele><time>2026-04-07T15:29:41Z</time></trkpt><trkpt lat="48.306465126601765" lon="-0.6408325154833899"><ele>149.0</ele><time>2026-04-07T15:29:44Z</time></trkpt><trkpt lat="48.30655650457113" lon="-0.6408565057945129"><ele>149.0</ele><time>2026-04-07T15:29:48Z</time></trkpt><trkpt lat="48.30662002052459" lon="-0.6408832985623918"><ele>149.0</ele><time>2026-04-07T15:29:50Z</time></trkpt><trkpt lat="48.30669765159919" lon="-0.6409180117684735"><ele>149.0</ele><time>2026-04-07T15:29:53Z</time></trkpt><trkpt lat="48.30678109360438" lon="-0.6409465863137684"><ele>148.71428571428572</ele><time>2026-04-07T15:29:56Z</time></trkpt><trkpt lat="48.30685375400315" lon="-0.6409759344317786"><ele>148.42857142857142</ele><time>2026-04-07T15:29:58.999Z</time></trkpt><trkpt lat="48.3069114881641" lon="-0.640906320853566"><ele>148.14285714285714</ele><time>2026-04-07T15:30:01.999Z</time></trkpt><trkpt lat="48.306910233805915" lon="-0.6408089661599137"><ele>147.85714285714286</ele><time>2026-04-07T15:30:03.999Z</time></trkpt><trkpt lat="48.30694186195233" lon="-0.6407254452420269"><ele>147.57142857142856</ele><time>2026-04-07T15:30:05.999Z</time></trkpt><trkpt lat="48.30696389281247" lon="-0.6406059562612453"><ele>147.28571428571428</ele><time>2026-04-07T15:30:08.999Z</time></trkpt><trkpt lat="48.30696483583801" lon="-0.6405097760187402"><ele>147.0</ele><time>2026-04-07T15:30:10.999Z</time></trkpt><trkpt lat="48.30697381932347" lon="-0.6404107960843665"><ele>147.0</ele><time>2026-04-07T15:30:12.999Z</time></trkpt><trkpt lat="48.30700052096674" lon="-0.6403000476667277"><ele>147.0</ele><time>2026-04-07T15:30:16Z</time></trkpt><trkpt lat="48.30702583765494" lon="-0.6402058230718071"><ele>147.0</ele><time>2026-04-07T15:30:19Z</time></trkpt><trkpt lat="48.30704001403357" lon="-0.6400843668789645"><ele>147.0</ele><time>2026-04-07T15:30:22Z</time></trkpt><trkpt lat="48.30704662698475" lon="-0.6399575741507687"><ele>147.0</ele><time>2026-04-07T15:30:25Z</time></trkpt><trkpt lat="48.30703723073702" lon="-0.6398240522195014"><ele>147.0</ele><time>2026-04-07T15:30:28Z</time></trkpt><trkpt lat="48.3070297487303" lon="-0.6397189250485974"><ele>147.5</ele><time>2026-04-07T15:30:30Z</time></trkpt><trkpt lat="48.30702193524629" lon="-0.6395746961574869"><ele>148.0</ele><time>2026-04-07T15:30:33Z</time></trkpt><trkpt lat="48.30702305008212" lon="-0.6394797248622166"><ele>148.5</ele><time>2026-04-07T15:30:35Z</time></trkpt><trkpt lat="48.307020360574334" lon="-0.6393613954106243"><ele>149.0</ele><time>2026-04-07T15:30:38Z</time></trkpt><trkpt lat="48.307009934253465" lon="-0.6392495086760982"><ele>149.5</ele><time>2026-04-07T15:30:40Z</time></trkpt><trkpt lat="48.30699197002194" lon="-0.6391352689173303"><ele>150.0</ele><time>2026-04-07T15:30:43Z</time></trkpt><trkpt lat="48.30699223634747" lon="-0.6390300642018599"><ele>150.14285714285714</ele><time>2026-04-07T15:30:45Z</time></trkpt><trkpt lat="48.30699542682765" lon="-0.6389277609062283"><ele>150.28571428571428</ele><time>2026-04-07T15:30:47Z</time></trkpt><trkpt lat="48.306995980849635" lon="-0.6388293220133439"><ele>150.42857142857144</ele><time>2026-04-07T15:30:49Z</time></trkpt><trkpt lat="48.30696004087005" lon="-0.638724444591103"><ele>150.57142857142856</ele><time>2026-04-07T15:30:52Z</time></trkpt><trkpt lat="48.30693742106745" lon="-0.63861649462794"><ele>150.71428571428572</ele><time>2026-04-07T15:30:54Z</time></trkpt><trkpt lat="48.30691957898572" lon="-0.6385211134542988"><ele>150.85714285714286</ele><time>2026-04-07T15:30:56Z</time></trkpt><trkpt lat="48.30689186609991" lon="-0.6384060980913752"><ele>151.0</ele><time>2026-04-07T15:30:59Z</time></trkpt><trkpt lat="48.306870988309484" lon="-0.6383026004838358"><ele>151.00000000000003</ele><time>2026-04-07T15:31:02Z</time></trkpt><trkpt lat="48.306844187141124" lon="-0.6382025549729258"><ele>151.0</ele><time>2026-04-07T15:31:08Z</time></trkpt><trkpt lat="48.306823778926386" lon="-0.6380892283571398"><ele>151.0</ele><time>2026-04-07T15:31:12Z</time></trkpt><trkpt lat="48.30682265734905" lon="-0.6379863117482933"><ele>151.0</ele><time>2026-04-07T15:31:20Z</time></trkpt><trkpt lat="48.30681582981115" lon="-0.637869316863576"><ele>151.0</ele><time>2026-04-07T15:31:28Z</time></trkpt><trkpt lat="48.30681102319792" lon="-0.6377625131348003"><ele>151.00000000000003</ele><time>2026-04-07T15:31:33Z</time></trkpt><trkpt lat="48.30678066336333" lon="-0.6376596698620902"><ele>151.0</ele><time>2026-04-07T15:31:38Z</time></trkpt><trkpt lat="48.30675461190186" lon="-0.6375607531923622"><ele>150.57142857142858</ele><time>2026-04-07T15:31:43Z</time></trkpt><trkpt lat="48.30673584278226" lon="-0.637456136967149"><ele>150.14285714285714</ele><time>2026-04-07T15:31:48Z</time></trkpt><trkpt lat="48.30672196877453" lon="-0.6373446161516454"><ele>149.71428571428572</ele><time>2026-04-07T15:31:54Z</time></trkpt><trkpt lat="48.30670740836367" lon="-0.637247228810158"><ele>149.28571428571428</ele><time>2026-04-07T15:31:59Z</time></trkpt><trkpt lat="48.30670950475349" lon="-0.6371439446579469"><ele>148.85714285714286</ele><time>2026-04-07T15:32:03.999Z</time></trkpt><trkpt lat="48.30671332801884" lon="-0.6370175504830166"><ele>148.42857142857144</ele><time>2026-04-07T15:32:09.999Z</time></trkpt><trkpt lat="48.30671510100463" lon="-0.6369114920772749"><ele>148.0</ele><time>2026-04-07T15:32:14.999Z</time></trkpt><trkpt lat="48.30670113840954" lon="-0.6367958887380384"><ele>148.0</ele><time>2026-04-07T15:32:20.999Z</time></trkpt><trkpt lat="48.3067191340426" lon="-0.636701675834683"><ele>148.0</ele><time>2026-04-07T15:32:25Z</time></trkpt><trkpt lat="48.30672404728927" lon="-0.6365972497752664"><ele>148.0</ele><time>2026-04-07T15:32:27Z</time></trkpt><trkpt lat="48.306713031819065" lon="-0.6364542025393042"><ele>148.0</ele><time>2026-04-07T15:32:31Z</time></trkpt><trkpt lat="48.30671378399672" lon="-0.6363241815228194"><ele>148.0</ele><time>2026-04-07T15:32:33Z</time></trkpt><trkpt lat="48.30669815016151" lon="-0.6361755186995056"><ele>148.0</ele><time>2026-04-07T15:32:35Z</time></trkpt><trkpt lat="48.30669927780734" lon="-0.6360626196645991"><ele>147.57142857142858</ele><time>2026-04-07T15:32:37Z</time></trkpt><trkpt lat="48.30669892253819" lon="-0.6359576094131721"><ele>147.14285714285714</ele><time>2026-04-07T15:32:39Z</time></trkpt><trkpt lat="48.306706943942054" lon="-0.6358550613029011"><ele>146.71428571428572</ele><time>2026-04-07T15:32:41Z</time></trkpt><trkpt lat="48.30669397784263" lon="-0.6357137583464723"><ele>146.28571428571428</ele><time>2026-04-07T15:32:44Z</time></trkpt><trkpt lat="48.30668045978617" lon="-0.6356129862477742"><ele>145.85714285714286</ele><time>2026-04-07T15:32:46Z</time></trkpt><trkpt lat="48.3066804319255" lon="-0.6354941633470655"><ele>145.42857142857144</ele><time>2026-04-07T15:32:48Z</time></trkpt><trkpt lat="48.30667167870523" lon="-0.6353939935058261"><ele>145.0</ele><time>2026-04-07T15:32:50Z</time></trkpt><trkpt lat="48.3066669475422" lon="-0.6352559190229894"><ele>144.33333333333334</ele><time>2026-04-07T15:32:53Z</time></trkpt><trkpt lat="48.30667320505896" lon="-0.6351513715861854"><ele>143.66666666666669</ele><time>2026-04-07T15:32:55Z</time></trkpt><trkpt lat="48.306685545918086" lon="-0.635019406577746"><ele>143.0</ele><time>2026-04-07T15:32:58Z</time></trkpt><trkpt lat="48.30668748019765" lon="-0.6349141390727192"><ele>142.33333333333334</ele><time>2026-04-07T15:33:00Z</time></trkpt><trkpt lat="48.306690344741625" lon="-0.6348000783352795"><ele>141.66666666666666</ele><time>2026-04-07T15:33:02Z</time></trkpt><trkpt lat="48.306681923143934" lon="-0.6346617610796181"><ele>141.0</ele><time>2026-04-07T15:33:05Z</time></trkpt><trkpt lat="48.30666933188723" lon="-0.6345659929908493"><ele>140.57142857142858</ele><time>2026-04-07T15:33:07Z</time></trkpt><trkpt lat="48.30667252070991" lon="-0.634460443823663"><ele>140.14285714285714</ele><time>2026-04-07T15:33:09Z</time></trkpt><trkpt lat="48.30669107872919" lon="-0.6343306255267851"><ele>139.71428571428572</ele><time>2026-04-07T15:33:12Z</time></trkpt><trkpt lat="48.3066860398184" lon="-0.6342359136902073"><ele>139.28571428571428</ele><time>2026-04-07T15:33:14Z</time></trkpt><trkpt lat="48.30669297938595" lon="-0.6341392670199042"><ele>138.85714285714286</ele><time>2026-04-07T15:33:16Z</time></trkpt><trkpt lat="48.30666576505742" lon="-0.6340212459295856"><ele>138.42857142857144</ele><time>2026-04-07T15:33:19Z</time></trkpt><trkpt lat="48.30665868907117" lon="-0.6339237378313904"><ele>138.0</ele><time>2026-04-07T15:33:21Z</time></trkpt><trkpt lat="48.30665356039815" lon="-0.6338234247746956"><ele>138.0</ele><time>2026-04-07T15:33:23Z</time></trkpt><trkpt lat="48.306646341336524" lon="-0.6336865448660387"><ele>138.0</ele><time>2026-04-07T15:33:26Z</time></trkpt><trkpt lat="48.30663429968912" lon="-0.633580934396011"><ele>138.0</ele><time>2026-04-07T15:33:28Z</time></trkpt><trkpt lat="48.30661784969939" lon="-0.6334705198525378"><ele>138.0</ele><time>2026-04-07T15:33:30Z</time></trkpt><trkpt lat="48.306626435135854" lon="-0.6333737057108924"><ele>138.0</ele><time>2026-04-07T15:33:32Z</time></trkpt><trkpt lat="48.30660136469586" lon="-0.6332149981426399"><ele>138.0</ele><time>2026-04-07T15:33:35Z</time></trkpt><trkpt lat="48.3065978063319" lon="-0.6331056316492709"><ele>137.16666666666666</ele><time>2026-04-07T15:33:37Z</time></trkpt><trkpt lat="48.30659690501275" lon="-0.6330069553865987"><ele>136.33333333333334</ele><time>2026-04-07T15:33:39Z</time></trkpt><trkpt lat="48.3065809730491" lon="-0.6328570711364376"><ele>135.5</ele><time>2026-04-07T15:33:41.999Z</time></trkpt><trkpt lat="48.3065676264421" lon="-0.6327457639986697"><ele>134.66666666666669</ele><time>2026-04-07T15:33:43.999Z</time></trkpt><trkpt lat="48.30654141787221" lon="-0.6326593243957296"><ele>133.83333333333334</ele><time>2026-04-07T15:33:45.999Z</time></trkpt><trkpt lat="48.30653222138215" lon="-0.6325417910903908"><ele>133.0</ele><time>2026-04-07T15:33:47.999Z</time></trkpt><trkpt lat="48.30653430074169" lon="-0.6324040596108638"><ele>132.28571428571428</ele><time>2026-04-07T15:33:50.999Z</time></trkpt><trkpt lat="48.30653297771012" lon="-0.6322837293357936"><ele>131.57142857142856</ele><time>2026-04-07T15:33:53.999Z</time></trkpt><trkpt lat="48.30650921342629" lon="-0.6321485810802893"><ele>130.85714285714286</ele><time>2026-04-07T15:33:56.999Z</time></trkpt><trkpt lat="48.30649908211354" lon="-0.6320520441523604"><ele>130.14285714285714</ele><time>2026-04-07T15:33:58.999Z</time></trkpt><trkpt lat="48.30647271861916" lon="-0.631961049180041"><ele>129.42857142857142</ele><time>2026-04-07T15:34:01.999Z</time></trkpt><trkpt lat="48.306441565510305" lon="-0.631873897267578"><ele>128.71428571428572</ele><time>2026-04-07T15:34:06.999Z</time></trkpt><trkpt lat="48.30642371198872" lon="-0.6317573162770811"><ele>128.0</ele><time>2026-04-07T15:34:13.999Z</time></trkpt><trkpt lat="48.306416593633486" lon="-0.631654142673047"><ele>127.71428571428571</ele><time>2026-04-07T15:34:18.999Z</time></trkpt><trkpt lat="48.30641323605244" lon="-0.6315455166733911"><ele>127.42857142857142</ele><time>2026-04-07T15:34:22.999Z</time></trkpt><trkpt lat="48.306417235004744" lon="-0.6314374435159187"><ele>127.14285714285714</ele><time>2026-04-07T15:34:26.999Z</time></trkpt><trkpt lat="48.30641167887777" lon="-0.631328901181531"><ele>126.85714285714286</ele><time>2026-04-07T15:34:33Z</time></trkpt><trkpt lat="48.306405770025904" lon="-0.631231669634601"><ele>126.57142857142857</ele><time>2026-04-07T15:34:38Z</time></trkpt><trkpt lat="48.30638085976399" lon="-0.6311385017440974"><ele>126.28571428571428</ele><time>2026-04-07T15:34:43Z</time></trkpt><trkpt lat="48.30631589208785" lon="-0.6310959497744919"><ele>126.0</ele><time>2026-04-07T15:34:49Z</time></trkpt><trkpt lat="48.30623818558284" lon="-0.6310690279140381"><ele>126.0</ele><time>2026-04-07T15:34:55Z</time></trkpt><trkpt lat="48.30616851488164" lon="-0.6310969786132092"><ele>126.0</ele><time>2026-04-07T15:35:00Z</time></trkpt><trkpt lat="48.306108023516096" lon="-0.6311286405531585"><ele>126.0</ele><time>2026-04-07T15:35:04Z</time></trkpt><trkpt lat="48.30603532745183" lon="-0.6311711669595392"><ele>126.0</ele><time>2026-04-07T15:35:09Z</time></trkpt><trkpt lat="48.30597044119176" lon="-0.6311724993723196"><ele>126.0</ele><time>2026-04-07T15:35:13Z</time></trkpt><trkpt lat="48.30589677929514" lon="-0.63119107358844"><ele>126.0</ele><time>2026-04-07T15:35:18Z</time></trkpt><trkpt lat="48.30581270573503" lon="-0.6312065444723932"><ele>126.0</ele><time>2026-04-07T15:35:20Z</time></trkpt><trkpt lat="48.30573495936829" lon="-0.6312095870535814"><ele>126.0</ele><time>2026-04-07T15:35:22Z</time></trkpt><trkpt lat="48.30565533352962" lon="-0.6311853192495459"><ele>126.0</ele><time>2026-04-07T15:35:26Z</time></trkpt><trkpt lat="48.30557831042482" lon="-0.6311481435518417"><ele>126.0</ele><time>2026-04-07T15:35:29Z</time></trkpt><trkpt lat="48.30548879785589" lon="-0.6311228243280551"><ele>126.0</ele><time>2026-04-07T15:35:31Z</time></trkpt><trkpt lat="48.30540421440815" lon="-0.631087347279312"><ele>126.0</ele><time>2026-04-07T15:35:33Z</time></trkpt><trkpt lat="48.30532859690343" lon="-0.6310697807960964"><ele>126.0</ele><time>2026-04-07T15:35:35Z</time></trkpt><trkpt lat="48.30525039894676" lon="-0.6310513730044764"><ele>125.28571428571428</ele><time>2026-04-07T15:35:37Z</time></trkpt><trkpt lat="48.30517557940214" lon="-0.6310178447013923"><ele>124.57142857142857</ele><time>2026-04-07T15:35:39Z</time></trkpt><trkpt lat="48.30511013739917" lon="-0.6309880194322252"><ele>123.85714285714286</ele><time>2026-04-07T15:35:41Z</time></trkpt><trkpt lat="48.305041241094216" lon="-0.6309874249920138"><ele>123.14285714285714</ele><time>2026-04-07T15:35:43Z</time></trkpt><trkpt lat="48.30498093931007" lon="-0.630946880307424"><ele>122.42857142857142</ele><time>2026-04-07T15:35:44.999Z</time></trkpt><trkpt lat="48.30491701954282" lon="-0.6309107481538193"><ele>121.71428571428571</ele><time>2026-04-07T15:35:46.999Z</time></trkpt><trkpt lat="48.30482220699558" lon="-0.6308770826394909"><ele>121.0</ele><time>2026-04-07T15:35:49.999Z</time></trkpt><trkpt lat="48.304745523655846" lon="-0.6308741995639809"><ele>121.00000000000001</ele><time>2026-04-07T15:35:51.999Z</time></trkpt><trkpt lat="48.30465577107556" lon="-0.630816448779885"><ele>121.0</ele><time>2026-04-07T15:35:54.999Z</time></trkpt><trkpt lat="48.304589828388785" lon="-0.6308028080662079"><ele>121.0</ele><time>2026-04-07T15:35:56.999Z</time></trkpt><trkpt lat="48.30452077308347" lon="-0.6307382824128924"><ele>121.0</ele><time>2026-04-07T15:35:59.999Z</time></trkpt><trkpt lat="48.304450889422164" lon="-0.6307134244073942"><ele>121.00000000000001</ele><time>2026-04-07T15:36:01.999Z</time></trkpt><trkpt lat="48.3043881154128" lon="-0.6306906265512179"><ele>121.0</ele><time>2026-04-07T15:36:03.999Z</time></trkpt><trkpt lat="48.30434225842375" lon="-0.6305795487621189"><ele>121.00000000000001</ele><time>2026-04-07T15:36:06.999Z</time></trkpt><trkpt lat="48.30434208853651" lon="-0.6304570573900014"><ele>121.0</ele><time>2026-04-07T15:36:08.999Z</time></trkpt><trkpt lat="48.30429669932905" lon="-0.6303792347905317"><ele>121.0</ele><time>2026-04-07T15:36:10.999Z</time></trkpt><trkpt lat="48.30424440113741" lon="-0.6302962427370498"><ele>121.0</ele><time>2026-04-07T15:36:12.999Z</time></trkpt><trkpt lat="48.30421418362196" lon="-0.6301948247621091"><ele>121.00000000000001</ele><time>2026-04-07T15:36:14.999Z</time></trkpt><trkpt lat="48.30416927431076" lon="-0.6300776908208434"><ele>121.0</ele><time>2026-04-07T15:36:17.999Z</time></trkpt><trkpt lat="48.30412822558292" lon="-0.6300015359166652"><ele>120.83333333333334</ele><time>2026-04-07T15:36:19.999Z</time></trkpt><trkpt lat="48.3040562978635" lon="-0.6299842585597895"><ele>120.66666666666667</ele><time>2026-04-07T15:36:21.999Z</time></trkpt><trkpt lat="48.303982012269486" lon="-0.6299685128226049"><ele>120.5</ele><time>2026-04-07T15:36:23.999Z</time></trkpt><trkpt lat="48.30391784673161" lon="-0.6299771245830385"><ele>120.33333333333334</ele><time>2026-04-07T15:36:25.999Z</time></trkpt><trkpt lat="48.303837706020616" lon="-0.6300349340291261"><ele>120.16666666666667</ele><time>2026-04-07T15:36:28.999Z</time></trkpt><trkpt lat="48.30384687065754" lon="-0.6301920367752767"><ele>120.0</ele><time>2026-04-07T15:36:31.999Z</time></trkpt><trkpt lat="48.30390500319037" lon="-0.6302689507257272"><ele>119.85714285714286</ele><time>2026-04-07T15:36:34Z</time></trkpt><trkpt lat="48.30389169903241" lon="-0.6303821183674322"><ele>119.71428571428571</ele><time>2026-04-07T15:36:37Z</time></trkpt><trkpt lat="48.303868770096074" lon="-0.6304846432713663"><ele>119.57142857142857</ele><time>2026-04-07T15:36:40Z</time></trkpt><trkpt lat="48.303788417491276" lon="-0.6304797966821764"><ele>119.42857142857143</ele><time>2026-04-07T15:36:43Z</time></trkpt><trkpt lat="48.30372550399528" lon="-0.6304431000144889"><ele>119.28571428571428</ele><time>2026-04-07T15:36:45Z</time></trkpt><trkpt lat="48.30366708622163" lon="-0.6304069455820026"><ele>119.14285714285714</ele><time>2026-04-07T15:36:47Z</time></trkpt><trkpt lat="48.303602368136" lon="-0.6303455148435212"><ele>119.0</ele><time>2026-04-07T15:36:50Z</time></trkpt><trkpt lat="48.303535561587324" lon="-0.6302837111310401"><ele>118.99999999999999</ele><time>2026-04-07T15:36:53Z</time></trkpt><trkpt lat="48.30347056364979" lon="-0.630229103195679"><ele>119.0</ele><time>2026-04-07T15:36:56Z</time></trkpt><trkpt lat="48.30339643520411" lon="-0.6301616488287197"><ele>119.0</ele><time>2026-04-07T15:36:59Z</time></trkpt><trkpt lat="48.3033246971492" lon="-0.6300990893299683"><ele>119.0</ele><time>2026-04-07T15:37:02Z</time></trkpt><trkpt lat="48.3032574393716" lon="-0.6300211037306279"><ele>118.99999999999999</ele><time>2026-04-07T15:37:05Z</time></trkpt><trkpt lat="48.30318670023029" lon="-0.629965180694809"><ele>119.0</ele><time>2026-04-07T15:37:08Z</time></trkpt><trkpt lat="48.303128154461085" lon="-0.6298854107989964"><ele>119.49999999999999</ele><time>2026-04-07T15:37:11Z</time></trkpt><trkpt lat="48.30305374032677" lon="-0.6298316634758676"><ele>120.0</ele><time>2026-04-07T15:37:14Z</time></trkpt><trkpt lat="48.302991713172304" lon="-0.6297537822422198"><ele>120.5</ele><time>2026-04-07T15:37:17Z</time></trkpt><trkpt lat="48.30293892766468" lon="-0.6296673913788171"><ele>121.0</ele><time>2026-04-07T15:37:20Z</time></trkpt><trkpt lat="48.30287777856843" lon="-0.6295933132670264"><ele>121.49999999999999</ele><time>2026-04-07T15:37:23Z</time></trkpt><trkpt lat="48.30283440617227" lon="-0.6295123384936028"><ele>122.0</ele><time>2026-04-07T15:37:26Z</time></trkpt><trkpt lat="48.302783856228416" lon="-0.6294279913188838"><ele>121.99999999999999</ele><time>2026-04-07T15:37:29Z</time></trkpt><trkpt lat="48.30275141962364" lon="-0.629315756562956"><ele>122.0</ele><time>2026-04-07T15:37:32Z</time></trkpt><trkpt lat="48.30270195539397" lon="-0.6292263384622135"><ele>122.0</ele><time>2026-04-07T15:37:35Z</time></trkpt><trkpt lat="48.302655008676915" lon="-0.6291298455072308"><ele>122.0</ele><time>2026-04-07T15:37:38Z</time></trkpt><trkpt lat="48.30260281752655" lon="-0.629041041855329"><ele>121.99999999999999</ele><time>2026-04-07T15:37:41Z</time></trkpt><trkpt lat="48.30256414664977" lon="-0.6289374018182362"><ele>122.0</ele><time>2026-04-07T15:37:44Z</time></trkpt><trkpt lat="48.30252581863731" lon="-0.6288313986486987"><ele>121.99999999999999</ele><time>2026-04-07T15:37:46.999Z</time></trkpt><trkpt lat="48.302482361552975" lon="-0.6287155781965932"><ele>122.0</ele><time>2026-04-07T15:37:49.999Z</time></trkpt><trkpt lat="48.302441814752676" lon="-0.6285994539235724"><ele>122.0</ele><time>2026-04-07T15:37:52.999Z</time></trkpt><trkpt lat="48.302421034567764" lon="-0.6284713079085068"><ele>122.0</ele><time>2026-04-07T15:37:55.999Z</time></trkpt><trkpt lat="48.30240183801663" lon="-0.6283571981868701"><ele>121.99999999999999</ele><time>2026-04-07T15:37:58.999Z</time></trkpt><trkpt lat="48.302385481802624" lon="-0.628224367504074"><ele>122.0</ele><time>2026-04-07T15:38:01.999Z</time></trkpt><trkpt lat="48.30235314263768" lon="-0.6281007887332893"><ele>121.66666666666666</ele><time>2026-04-07T15:38:04.999Z</time></trkpt><trkpt lat="48.30233830295879" lon="-0.6279564830919947"><ele>121.33333333333333</ele><time>2026-04-07T15:38:07.999Z</time></trkpt><trkpt lat="48.30233709028967" lon="-0.6278579708262118"><ele>121.0</ele><time>2026-04-07T15:38:09.999Z</time></trkpt><trkpt lat="48.30231915183471" lon="-0.6277581398154302"><ele>120.66666666666666</ele><time>2026-04-07T15:38:11.999Z</time></trkpt><trkpt lat="48.30232171308926" lon="-0.6276552216053035"><ele>120.33333333333333</ele><time>2026-04-07T15:38:13.999Z</time></trkpt><trkpt lat="48.302313121903985" lon="-0.627543376712613"><ele>120.0</ele><time>2026-04-07T15:38:16.999Z</time></trkpt><trkpt lat="48.30230304492953" lon="-0.6274078755487542"><ele>119.33333333333333</ele><time>2026-04-07T15:38:19.999Z</time></trkpt><trkpt lat="48.30229351393879" lon="-0.6272820797584744"><ele>118.66666666666666</ele><time>2026-04-07T15:38:22.999Z</time></trkpt><trkpt lat="48.30228097650764" lon="-0.627146047551226"><ele>118.0</ele><time>2026-04-07T15:38:25.999Z</time></trkpt><trkpt lat="48.30226546276063" lon="-0.6270019390239864"><ele>117.33333333333333</ele><time>2026-04-07T15:38:28.999Z</time></trkpt><trkpt lat="48.302268900497836" lon="-0.6268974570784179"><ele>116.66666666666666</ele><time>2026-04-07T15:38:30.999Z</time></trkpt><trkpt lat="48.30226596881381" lon="-0.626797505206709"><ele>116.0</ele><time>2026-04-07T15:38:32.999Z</time></trkpt><trkpt lat="48.302277525152434" lon="-0.6266681865957885"><ele>116.33333333333333</ele><time>2026-04-07T15:38:35.999Z</time></trkpt><trkpt lat="48.30226158039784" lon="-0.6265443430965454"><ele>116.66666666666666</ele><time>2026-04-07T15:38:38.999Z</time></trkpt><trkpt lat="48.302244583807834" lon="-0.6264105354771817"><ele>117.0</ele><time>2026-04-07T15:38:42Z</time></trkpt><trkpt lat="48.302245701419274" lon="-0.626267534197197"><ele>117.33333333333334</ele><time>2026-04-07T15:38:45Z</time></trkpt><trkpt lat="48.30223418418321" lon="-0.62613376469824"><ele>117.66666666666667</ele><time>2026-04-07T15:38:48Z</time></trkpt><trkpt lat="48.30222890903225" lon="-0.6260113010290812"><ele>118.0</ele><time>2026-04-07T15:38:51Z</time></trkpt><trkpt lat="48.30220762139804" lon="-0.625876967579533"><ele>118.00000000000001</ele><time>2026-04-07T15:38:54Z</time></trkpt><trkpt lat="48.3022127822336" lon="-0.6257572722035694"><ele>118.0</ele><time>2026-04-07T15:38:57Z</time></trkpt><trkpt lat="48.30220428638525" lon="-0.625632294187696"><ele>118.0</ele><time>2026-04-07T15:39:00Z</time></trkpt><trkpt lat="48.30219587976386" lon="-0.6255246250059155"><ele>118.0</ele><time>2026-04-07T15:39:03Z</time></trkpt><trkpt lat="48.30217952916072" lon="-0.6254079318829024"><ele>118.00000000000001</ele><time>2026-04-07T15:39:06Z</time></trkpt><trkpt lat="48.30214621309826" lon="-0.6252775657347195"><ele>118.0</ele><time>2026-04-07T15:39:09Z</time></trkpt><trkpt lat="48.302123213522606" lon="-0.6251813561076265"><ele>117.66666666666667</ele><time>2026-04-07T15:39:12Z</time></trkpt><trkpt lat="48.302088691057264" lon="-0.6250551983047935"><ele>117.33333333333334</ele><time>2026-04-07T15:39:15Z</time></trkpt><trkpt lat="48.302050274471235" lon="-0.6249338622689429"><ele>117.0</ele><time>2026-04-07T15:39:18Z</time></trkpt><trkpt lat="48.30201067997865" lon="-0.6248327998415858"><ele>116.66666666666666</ele><time>2026-04-07T15:39:21Z</time></trkpt><trkpt lat="48.30195954458324" lon="-0.624730011445151"><ele>116.33333333333333</ele><time>2026-04-07T15:39:24Z</time></trkpt><trkpt lat="48.30191575976229" lon="-0.6246355756940428"><ele>116.0</ele><time>2026-04-07T15:39:27Z</time></trkpt><trkpt lat="48.301861315564885" lon="-0.6245466575580162"><ele>116.00000000000001</ele><time>2026-04-07T15:39:30Z</time></trkpt><trkpt lat="48.30181181002493" lon="-0.6244731790960487"><ele>116.0</ele><time>2026-04-07T15:39:33Z</time></trkpt><trkpt lat="48.30175466750271" lon="-0.6244323583435363"><ele>116.00000000000001</ele><time>2026-04-07T15:39:38Z</time></trkpt><trkpt lat="48.301685528298144" lon="-0.624491353820876"><ele>116.00000000000001</ele><time>2026-04-07T15:39:41Z</time></trkpt><trkpt lat="48.30164320856886" lon="-0.6245617239717827"><ele>116.0</ele><time>2026-04-07T15:39:43Z</time></trkpt><trkpt lat="48.30158779448452" lon="-0.6246352430311699"><ele>116.00000000000001</ele><time>2026-04-07T15:39:45Z</time></trkpt><trkpt lat="48.30152638920768" lon="-0.6246755011151338"><ele>116.00000000000001</ele><time>2026-04-07T15:39:47Z</time></trkpt><trkpt lat="48.30144101500571" lon="-0.6246386739773526"><ele>116.33333333333333</ele><time>2026-04-07T15:39:50Z</time></trkpt><trkpt lat="48.30137527170801" lon="-0.6245829666849819"><ele>116.66666666666666</ele><time>2026-04-07T15:39:53Z</time></trkpt><trkpt lat="48.301324556952004" lon="-0.6245232589064956"><ele>117.0</ele><time>2026-04-07T15:39:55Z</time></trkpt><trkpt lat="48.30125669002615" lon="-0.6244585100395015"><ele>117.33333333333334</ele><time>2026-04-07T15:39:58Z</time></trkpt><trkpt lat="48.3011879140861" lon="-0.6243699004651174"><ele>117.66666666666667</ele><time>2026-04-07T15:40:01Z</time></trkpt><trkpt lat="48.30112256647977" lon="-0.624285509634074"><ele>118.0</ele><time>2026-04-07T15:40:04Z</time></trkpt><trkpt lat="48.30105679488472" lon="-0.6242593324805429"><ele>118.0</ele><time>2026-04-07T15:40:07.999Z</time></trkpt></trkseg><trkseg><trkpt lat="48.301032477656136" lon="-0.6241603347838096"><ele>118.00000000000001</ele><time>2026-04-07T15:52:08.999Z</time></trkpt><trkpt lat="48.30096880893826" lon="-0.6241735617400533"><ele>118.0</ele><time>2026-04-07T15:52:12.999Z</time></trkpt><trkpt lat="48.30097415308256" lon="-0.6240624405448905"><ele>118.0</ele><time>2026-04-07T15:52:16.997Z</time></trkpt><trkpt lat="48.30095882687344" lon="-0.6239619948854433"><ele>118.0</ele><time>2026-04-07T15:52:20.997Z</time></trkpt><trkpt lat="48.30095319451337" lon="-0.6238472152954532"><ele>118.00000000000001</ele><time>2026-04-07T15:52:25.998Z</time></trkpt><trkpt lat="48.30099189580692" lon="-0.6237215748276074"><ele>118.0</ele><time>2026-04-07T15:52:27.998Z</time></trkpt><trkpt lat="48.30101000879711" lon="-0.6236050399917378"><ele>118.0</ele><time>2026-04-07T15:52:29.998Z</time></trkpt><trkpt lat="48.30096488977346" lon="-0.6235112277132862"><ele>118.0</ele><time>2026-04-07T15:52:31.998Z</time></trkpt><trkpt lat="48.30090922343207" lon="-0.6234324294636905"><ele>118.0</ele><time>2026-04-07T15:52:33.998Z</time></trkpt><trkpt lat="48.30085478192625" lon="-0.6233549577085191"><ele>118.0</ele><time>2026-04-07T15:52:35.998Z</time></trkpt><trkpt lat="48.300807991363875" lon="-0.623270450306234"><ele>118.0</ele><time>2026-04-07T15:52:37.999Z</time></trkpt><trkpt lat="48.30074950118934" lon="-0.6231884124196302"><ele>118.0</ele><time>2026-04-07T15:52:39.999Z</time></trkpt><trkpt lat="48.300705436892954" lon="-0.623117454908999"><ele>118.0</ele><time>2026-04-07T15:52:41.999Z</time></trkpt><trkpt lat="48.300665712602196" lon="-0.6230436402298645"><ele>118.0</ele><time>2026-04-07T15:52:43.999Z</time></trkpt><trkpt lat="48.30063154068203" lon="-0.6229533227133539"><ele>118.0</ele><time>2026-04-07T15:52:45.999Z</time></trkpt><trkpt lat="48.30056472420444" lon="-0.6228681345159108"><ele>121.0</ele><time>2026-04-07T15:52:48.999Z</time></trkpt><trkpt lat="48.300514015458496" lon="-0.6227757592880195"><ele>119.0</ele><time>2026-04-07T15:52:51.999Z</time></trkpt></trkseg><trkseg><trkpt lat="48.30016977158217" lon="-0.6209033075725854"><ele>105.0</ele><time>2026-04-07T16:15:55.685Z</time></trkpt><trkpt lat="48.30025585372774" lon="-0.6207750644540607"><ele>105.0</ele><time>2026-04-07T16:16:00.009Z</time></trkpt><trkpt lat="48.3003400499451" lon="-0.6207249406730949"><ele>105.0</ele><time>2026-04-07T16:16:02.008Z</time></trkpt><trkpt lat="48.30041833692072" lon="-0.6206479109829484"><ele>105.0</ele><time>2026-04-07T16:16:04.007Z</time></trkpt><trkpt lat="48.300460372165126" lon="-0.6205343361949739"><ele>105.0</ele><time>2026-04-07T16:16:06.006Z</time></trkpt><trkpt lat="48.30048310949256" lon="-0.6203762938186944"><ele>104.66666666666667</ele><time>2026-04-07T16:16:08.005Z</time></trkpt><trkpt lat="48.30047181142331" lon="-0.6202605374304287"><ele>104.33333333333334</ele><time>2026-04-07T16:16:10.004Z</time></trkpt><trkpt lat="48.30052806549182" lon="-0.6202101730458915"><ele>104.0</ele><time>2026-04-07T16:16:12.004Z</time></trkpt><trkpt lat="48.30059237395195" lon="-0.6201680978040656"><ele>103.66666666666667</ele><time>2026-04-07T16:16:14.003Z</time></trkpt><trkpt lat="48.30065624319938" lon="-0.6200923533319961"><ele>103.33333333333334</ele><time>2026-04-07T16:16:17.003Z</time></trkpt><trkpt lat="48.3007161651944" lon="-0.6200220478870819"><ele>103.0</ele><time>2026-04-07T16:16:19.002Z</time></trkpt><trkpt lat="48.300804013541594" lon="-0.6199622402205669"><ele>103.00000000000001</ele><time>2026-04-07T16:16:21.002Z</time></trkpt><trkpt lat="48.300865144630926" lon="-0.6199112892904204"><ele>103.0</ele><time>2026-04-07T16:16:23.002Z</time></trkpt><trkpt lat="48.3009385940451" lon="-0.6198540263751795"><ele>103.0</ele><time>2026-04-07T16:16:25.001Z</time></trkpt><trkpt lat="48.30102860519931" lon="-0.6197801601600078"><ele>103.0</ele><time>2026-04-07T16:16:27.001Z</time></trkpt><trkpt lat="48.301097879750415" lon="-0.6197445886172381"><ele>103.00000000000001</ele><time>2026-04-07T16:16:29.001Z</time></trkpt><trkpt lat="48.30118111362644" lon="-0.6196871377366823"><ele>103.0</ele><time>2026-04-07T16:16:31.001Z</time></trkpt><trkpt lat="48.30125476001964" lon="-0.6197065855548287"><ele>103.00000000000001</ele><time>2026-04-07T16:16:33.001Z</time></trkpt><trkpt lat="48.30133885627619" lon="-0.6197134051467613"><ele>103.0</ele><time>2026-04-07T16:16:36Z</time></trkpt><trkpt lat="48.301425137065806" lon="-0.6196713057286094"><ele>103.0</ele><time>2026-04-07T16:16:38Z</time></trkpt><trkpt lat="48.301489336755786" lon="-0.619691405516516"><ele>103.0</ele><time>2026-04-07T16:16:40Z</time></trkpt><trkpt lat="48.30153679084317" lon="-0.6197674878561269"><ele>103.00000000000001</ele><time>2026-04-07T16:16:42Z</time></trkpt><trkpt lat="48.30160263478477" lon="-0.6198114890644484"><ele>103.0</ele><time>2026-04-07T16:16:44Z</time></trkpt><trkpt lat="48.30168328760817" lon="-0.6198505468887409"><ele>104.00000000000001</ele><time>2026-04-07T16:16:46Z</time></trkpt><trkpt lat="48.301765087963176" lon="-0.6198504266836562"><ele>105.0</ele><time>2026-04-07T16:16:49Z</time></trkpt><trkpt lat="48.30182460654941" lon="-0.619768819523201"><ele>106.0</ele><time>2026-04-07T16:16:51Z</time></trkpt><trkpt lat="48.30188437705261" lon="-0.6197325762531458"><ele>107.0</ele><time>2026-04-07T16:16:53Z</time></trkpt><trkpt lat="48.30197219187305" lon="-0.6197071072550904"><ele>108.00000000000001</ele><time>2026-04-07T16:16:55Z</time></trkpt><trkpt lat="48.30205863264802" lon="-0.6197154058769877"><ele>109.0</ele><time>2026-04-07T16:16:57Z</time></trkpt><trkpt lat="48.30215986860017" lon="-0.6197408534327282"><ele>109.00000000000001</ele><time>2026-04-07T16:16:59.999Z</time></trkpt><trkpt lat="48.302233615732284" lon="-0.6197610347706771"><ele>109.0</ele><time>2026-04-07T16:17:01.999Z</time></trkpt><trkpt lat="48.30232377223573" lon="-0.6197548609914303"><ele>109.0</ele><time>2026-04-07T16:17:04.999Z</time></trkpt><trkpt lat="48.30240563536466" lon="-0.6197499135259291"><ele>109.0</ele><time>2026-04-07T16:17:07.999Z</time></trkpt><trkpt lat="48.3024704790722" lon="-0.6196475041574682"><ele>109.00000000000001</ele><time>2026-04-07T16:17:10.999Z</time></trkpt><trkpt lat="48.30248962173073" lon="-0.6195482155270128"><ele>109.0</ele><time>2026-04-07T16:17:12.999Z</time></trkpt><trkpt lat="48.30255361390668" lon="-0.6195218371330483"><ele>108.85714285714286</ele><time>2026-04-07T16:17:20.999Z</time></trkpt><trkpt lat="48.302619158903774" lon="-0.619515042239323"><ele>108.71428571428572</ele><time>2026-04-07T16:17:25.999Z</time></trkpt><trkpt lat="48.302657593834525" lon="-0.6195959259770843"><ele>108.57142857142857</ele><time>2026-04-07T16:17:30.999Z</time></trkpt><trkpt lat="48.302602510941874" lon="-0.6195486005975257"><ele>108.42857142857143</ele><time>2026-04-07T16:17:40.999Z</time></trkpt><trkpt lat="48.30253558637061" lon="-0.6195373109880744"><ele>108.28571428571428</ele><time>2026-04-07T16:17:46.999Z</time></trkpt><trkpt lat="48.302466556080624" lon="-0.6195507291197463"><ele>108.14285714285714</ele><time>2026-04-07T16:17:51.999Z</time></trkpt><trkpt lat="48.302411759616206" lon="-0.6196327483752052"><ele>108.0</ele><time>2026-04-07T16:17:55.999Z</time></trkpt><trkpt lat="48.30238470098916" lon="-0.6197185030493048"><ele>108.0</ele><time>2026-04-07T16:17:58.999Z</time></trkpt><trkpt lat="48.30238445609795" lon="-0.6198331470534763"><ele>108.0</ele><time>2026-04-07T16:18:02.999Z</time></trkpt><trkpt lat="48.302423643720694" lon="-0.6199314370128645"><ele>108.0</ele><time>2026-04-07T16:18:04.998Z</time></trkpt><trkpt lat="48.302405413034535" lon="-0.6200244674119337"><ele>108.0</ele><time>2026-04-07T16:18:06.998Z</time></trkpt><trkpt lat="48.30238913229873" lon="-0.6201159797345991"><ele>108.0</ele><time>2026-04-07T16:18:08.998Z</time></trkpt><trkpt lat="48.302345433176114" lon="-0.6202009515065098"><ele>108.0</ele><time>2026-04-07T16:18:11.998Z</time></trkpt><trkpt lat="48.30226256203074" lon="-0.6202103859193207"><ele>108.0</ele><time>2026-04-07T16:18:13.999Z</time></trkpt><trkpt lat="48.30219184699718" lon="-0.6201620533683943"><ele>108.16666666666667</ele><time>2026-04-07T16:18:15.999Z</time></trkpt><trkpt lat="48.30212395504911" lon="-0.6201280244574241"><ele>108.33333333333334</ele><time>2026-04-07T16:18:17.999Z</time></trkpt><trkpt lat="48.30205745281867" lon="-0.6200614198562029"><ele>108.5</ele><time>2026-04-07T16:18:19.999Z</time></trkpt><trkpt lat="48.30199415330074" lon="-0.6200157710623074"><ele>108.66666666666667</ele><time>2026-04-07T16:18:21.999Z</time></trkpt><trkpt lat="48.30191004336734" lon="-0.6200032439198153"><ele>108.83333333333334</ele><time>2026-04-07T16:18:23.999Z</time></trkpt><trkpt lat="48.301825628076244" lon="-0.6199463589571336"><ele>109.0</ele><time>2026-04-07T16:18:26.999Z</time></trkpt><trkpt lat="48.30174198467958" lon="-0.6198769223855645"><ele>109.00000000000001</ele><time>2026-04-07T16:18:29.999Z</time></trkpt><trkpt lat="48.30166166496023" lon="-0.6198529885372497"><ele>109.0</ele><time>2026-04-07T16:18:31.999Z</time></trkpt><trkpt lat="48.301590538708155" lon="-0.6198017571396668"><ele>109.0</ele><time>2026-04-07T16:18:33.999Z</time></trkpt><trkpt lat="48.3015258017792" lon="-0.6197613682186777"><ele>109.0</ele><time>2026-04-07T16:18:35.999Z</time></trkpt><trkpt lat="48.30142694551708" lon="-0.6198109352959517"><ele>109.00000000000001</ele><time>2026-04-07T16:18:37.999Z</time></trkpt><trkpt lat="48.30137442028079" lon="-0.6197510893098053"><ele>109.0</ele><time>2026-04-07T16:18:39.999Z</time></trkpt><trkpt lat="48.30128883757563" lon="-0.6197217273794393"><ele>108.00000000000001</ele><time>2026-04-07T16:18:42.999Z</time></trkpt><trkpt lat="48.30121180627265" lon="-0.6197027008052618"><ele>107.0</ele><time>2026-04-07T16:18:44.999Z</time></trkpt><trkpt lat="48.30113161525714" lon="-0.6196882037013056"><ele>106.0</ele><time>2026-04-07T16:18:46.999Z</time></trkpt><trkpt lat="48.30106089769178" lon="-0.6197470041034204"><ele>105.0</ele><time>2026-04-07T16:18:48.999Z</time></trkpt><trkpt lat="48.30099057154487" lon="-0.6198457657490974"><ele>104.00000000000001</ele><time>2026-04-07T16:18:50.999Z</time></trkpt><trkpt lat="48.30093099037033" lon="-0.6199097049157372"><ele>103.0</ele><time>2026-04-07T16:18:52.999Z</time></trkpt><trkpt lat="48.30086647948387" lon="-0.6200021623124218"><ele>102.99999999999999</ele><time>2026-04-07T16:18:55.999Z</time></trkpt><trkpt lat="48.30080670825346" lon="-0.6200582138079875"><ele>103.0</ele><time>2026-04-07T16:18:57.999Z</time></trkpt><trkpt lat="48.3007244879787" lon="-0.6201309796937498"><ele>103.0</ele><time>2026-04-07T16:19:00.999Z</time></trkpt><trkpt lat="48.300666653413636" lon="-0.6202261071377438"><ele>103.0</ele><time>2026-04-07T16:19:03.999Z</time></trkpt><trkpt lat="48.30061369851612" lon="-0.6202788576864675"><ele>103.0</ele><time>2026-04-07T16:19:05.999Z</time></trkpt><trkpt lat="48.300549446909606" lon="-0.6203070313757151"><ele>102.99999999999999</ele><time>2026-04-07T16:19:07.999Z</time></trkpt><trkpt lat="48.30049377634971" lon="-0.6203515286000869"><ele>103.0</ele><time>2026-04-07T16:19:09.999Z</time></trkpt><trkpt lat="48.3004537947559" lon="-0.6204796129914957"><ele>103.33333333333334</ele><time>2026-04-07T16:19:12.999Z</time></trkpt><trkpt lat="48.30042085202186" lon="-0.6205772008161479"><ele>103.66666666666667</ele><time>2026-04-07T16:19:14.999Z</time></trkpt><trkpt lat="48.3003952734456" lon="-0.6207016128293302"><ele>104.0</ele><time>2026-04-07T16:19:17.999Z</time></trkpt><trkpt lat="48.30032970547937" lon="-0.6207963720046351"><ele>104.33333333333334</ele><time>2026-04-07T16:19:20.999Z</time></trkpt><trkpt lat="48.30022935121618" lon="-0.6208086599006405"><ele>104.66666666666667</ele><time>2026-04-07T16:19:23.999Z</time></trkpt><trkpt lat="48.30015929966545" lon="-0.620864035746027"><ele>105.0</ele><time>2026-04-07T16:19:27.999Z</time></trkpt><trkpt lat="48.300129150332076" lon="-0.620960338397385"><ele>105.0</ele><time>2026-04-07T16:19:35.999Z</time></trkpt><trkpt lat="48.3000555625726" lon="-0.6210731340726182"><ele>105.0</ele><time>2026-04-07T16:19:38.999Z</time></trkpt><trkpt lat="48.30005955436632" lon="-0.6212158377549988"><ele>105.0</ele><time>2026-04-07T16:19:41.999Z</time></trkpt><trkpt lat="48.300104455577376" lon="-0.6212956300247912"><ele>105.0</ele><time>2026-04-07T16:19:43.999Z</time></trkpt><trkpt lat="48.30015298643591" lon="-0.6213982178913967"><ele>105.0</ele><time>2026-04-07T16:19:45.999Z</time></trkpt><trkpt lat="48.30018299574268" lon="-0.6215488172934118"><ele>106.42857142857143</ele><time>2026-04-07T16:19:48.999Z</time></trkpt><trkpt lat="48.3002077571692" lon="-0.6216430738596851"><ele>107.85714285714286</ele><time>2026-04-07T16:19:50.999Z</time></trkpt><trkpt lat="48.30022440361777" lon="-0.6217412301661509"><ele>109.28571428571428</ele><time>2026-04-07T16:19:52.999Z</time></trkpt><trkpt lat="48.300234257250246" lon="-0.621847548784239"><ele>110.71428571428571</ele><time>2026-04-07T16:19:54.999Z</time></trkpt><trkpt lat="48.30023584661843" lon="-0.621953899505062"><ele>112.14285714285714</ele><time>2026-04-07T16:19:56.999Z</time></trkpt><trkpt lat="48.300254287928475" lon="-0.6220571476114632"><ele>113.57142857142856</ele><time>2026-04-07T16:19:58.999Z</time></trkpt><trkpt lat="48.30027735409956" lon="-0.6221801824409366"><ele>114.99999999999999</ele><time>2026-04-07T16:20:01.999Z</time></trkpt><trkpt lat="48.300313370523476" lon="-0.6223088409013324"><ele>115.66666666666667</ele><time>2026-04-07T16:20:04.999Z</time></trkpt><trkpt lat="48.30034542288294" lon="-0.6223915090288027"><ele>116.33333333333334</ele><time>2026-04-07T16:20:06.999Z</time></trkpt><trkpt lat="48.300374585474195" lon="-0.6224800154814932"><ele>117.0</ele><time>2026-04-07T16:20:08.999Z</time></trkpt><trkpt lat="48.30041033076609" lon="-0.622566172897863"><ele>117.66666666666666</ele><time>2026-04-07T16:20:10.998Z</time></trkpt><trkpt lat="48.30046731068278" lon="-0.622651175910139"><ele>118.33333333333333</ele><time>2026-04-07T16:20:13.998Z</time></trkpt><trkpt lat="48.30054021462461" lon="-0.6227400198915612"><ele>119.0</ele><time>2026-04-07T16:20:16.998Z</time></trkpt><trkpt lat="48.300581314192286" lon="-0.6228528458927344"><ele>118.83333333333333</ele><time>2026-04-07T16:20:19.998Z</time></trkpt><trkpt lat="48.30062914022484" lon="-0.6229492104382686"><ele>118.66666666666666</ele><time>2026-04-07T16:20:22.998Z</time></trkpt><trkpt lat="48.30068046095373" lon="-0.6230504932102529"><ele>118.5</ele><time>2026-04-07T16:20:25.999Z</time></trkpt><trkpt lat="48.300726956826175" lon="-0.6231543097813775"><ele>118.33333333333334</ele><time>2026-04-07T16:20:28.999Z</time></trkpt><trkpt lat="48.30077767124577" lon="-0.6232262515639024"><ele>118.16666666666667</ele><time>2026-04-07T16:20:30.999Z</time></trkpt><trkpt lat="48.30081750077524" lon="-0.6233036047762331"><ele>118.0</ele><time>2026-04-07T16:20:32.999Z</time></trkpt><trkpt lat="48.30087747165217" lon="-0.6234081687401815"><ele>118.00000000000001</ele><time>2026-04-07T16:20:35.999Z</time></trkpt><trkpt lat="48.300932865748905" lon="-0.6235073580272272"><ele>118.0</ele><time>2026-04-07T16:20:38.999Z</time></trkpt><trkpt lat="48.30098724599443" lon="-0.6236145797559202"><ele>118.0</ele><time>2026-04-07T16:20:41.999Z</time></trkpt><trkpt lat="48.30102407349571" lon="-0.6237368330969478"><ele>118.0</ele><time>2026-04-07T16:20:44.999Z</time></trkpt><trkpt lat="48.300979600636914" lon="-0.623805668257176"><ele>118.00000000000001</ele><time>2026-04-07T16:20:46.999Z</time></trkpt><trkpt lat="48.3009552265617" lon="-0.6239275746262248"><ele>118.0</ele><time>2026-04-07T16:20:50.999Z</time></trkpt><trkpt lat="48.300998300781586" lon="-0.6240317510127851"><ele>118.0</ele><time>2026-04-07T16:20:54.999Z</time></trkpt><trkpt lat="48.30101285772563" lon="-0.6241272624825045"><ele>118.0</ele><time>2026-04-07T16:20:58.999Z</time></trkpt><trkpt lat="48.30106096632776" lon="-0.6242062054518013"><ele>118.0</ele><time>2026-04-07T16:21:03.999Z</time></trkpt><trkpt lat="48.30112068695979" lon="-0.624276750473517"><ele>118.0</ele><time>2026-04-07T16:21:09.999Z</time></trkpt><trkpt lat="48.30117015669466" lon="-0.6243567740838434"><ele>118.0</ele><time>2026-04-07T16:21:13.999Z</time></trkpt><trkpt lat="48.301216946079435" lon="-0.6244274494306037"><ele>118.0</ele><time>2026-04-07T16:21:18.999Z</time></trkpt><trkpt lat="48.30126437198235" lon="-0.6245017147899674"><ele>118.0</ele><time>2026-04-07T16:21:25.999Z</time></trkpt><trkpt lat="48.301321717750625" lon="-0.6245571323298753"><ele>118.28571428571428</ele><time>2026-04-07T16:21:30.999Z</time></trkpt><trkpt lat="48.301391097721144" lon="-0.6245984946236398"><ele>118.57142857142858</ele><time>2026-04-07T16:21:35.999Z</time></trkpt><trkpt lat="48.30145998333881" lon="-0.6246527888173494"><ele>118.85714285714286</ele><time>2026-04-07T16:21:41.999Z</time></trkpt><trkpt lat="48.301523897014896" lon="-0.6246652699851276"><ele>119.14285714285714</ele><time>2026-04-07T16:21:46.999Z</time></trkpt><trkpt lat="48.30158996285926" lon="-0.6247123682425069"><ele>119.42857142857142</ele><time>2026-04-07T16:21:52.999Z</time></trkpt><trkpt lat="48.301618341621484" lon="-0.6248034796450614"><ele>119.71428571428572</ele><time>2026-04-07T16:21:58.999Z</time></trkpt><trkpt lat="48.30168263523227" lon="-0.6247740171121215"><ele>120.0</ele><time>2026-04-07T16:22:02.999Z</time></trkpt><trkpt lat="48.30173662718175" lon="-0.6247215610546283"><ele>119.33333333333333</ele><time>2026-04-07T16:22:10.999Z</time></trkpt><trkpt lat="48.301802063378496" lon="-0.6247353609371933"><ele>118.66666666666666</ele><time>2026-04-07T16:22:14.999Z</time></trkpt><trkpt lat="48.30186671690305" lon="-0.6248106800094827"><ele>118.0</ele><time>2026-04-07T16:22:20Z</time></trkpt><trkpt lat="48.30190560852692" lon="-0.6249099891755857"><ele>117.33333333333333</ele><time>2026-04-07T16:22:23Z</time></trkpt><trkpt lat="48.30194724900851" lon="-0.6250203303944744"><ele>116.66666666666666</ele><time>2026-04-07T16:22:26Z</time></trkpt><trkpt lat="48.302002565526735" lon="-0.6251812847702423"><ele>116.0</ele><time>2026-04-07T16:22:29Z</time></trkpt><trkpt lat="48.3020319653218" lon="-0.6252766112679611"><ele>116.33333333333333</ele><time>2026-04-07T16:22:31Z</time></trkpt><trkpt lat="48.302074431072754" lon="-0.6254012693600352"><ele>116.66666666666666</ele><time>2026-04-07T16:22:34Z</time></trkpt><trkpt lat="48.30211193139356" lon="-0.6255080403019716"><ele>117.0</ele><time>2026-04-07T16:22:36Z</time></trkpt><trkpt lat="48.30211064549013" lon="-0.6256468983922497"><ele>117.33333333333334</ele><time>2026-04-07T16:22:39Z</time></trkpt><trkpt lat="48.302118699583765" lon="-0.625748180900737"><ele>117.66666666666667</ele><time>2026-04-07T16:22:41Z</time></trkpt><trkpt lat="48.302130447962156" lon="-0.6258521363727426"><ele>118.0</ele><time>2026-04-07T16:22:43Z</time></trkpt><trkpt lat="48.302119582663074" lon="-0.6259948989761731"><ele>118.00000000000001</ele><time>2026-04-07T16:22:46Z</time></trkpt><trkpt lat="48.30215020437469" lon="-0.62611845534543"><ele>118.0</ele><time>2026-04-07T16:22:49Z</time></trkpt><trkpt lat="48.30216061129037" lon="-0.6262196406177478"><ele>118.0</ele><time>2026-04-07T16:22:51Z</time></trkpt><trkpt lat="48.3021578972058" lon="-0.6263143865761938"><ele>118.0</ele><time>2026-04-07T16:22:53Z</time></trkpt><trkpt lat="48.30216520077492" lon="-0.6264121337221118"><ele>118.00000000000001</ele><time>2026-04-07T16:22:55Z</time></trkpt><trkpt lat="48.30216834312481" lon="-0.6265471663610287"><ele>118.0</ele><time>2026-04-07T16:22:58Z</time></trkpt><trkpt lat="48.30217469480281" lon="-0.6266847570439202"><ele>118.50000000000001</ele><time>2026-04-07T16:23:01Z</time></trkpt><trkpt lat="48.30217330652953" lon="-0.6268162042988362"><ele>119.0</ele><time>2026-04-07T16:23:04Z</time></trkpt><trkpt lat="48.30218677249853" lon="-0.6269089061800286"><ele>119.5</ele><time>2026-04-07T16:23:06Z</time></trkpt><trkpt lat="48.30218963328914" lon="-0.6270512685243862"><ele>120.0</ele><time>2026-04-07T16:23:09Z</time></trkpt><trkpt lat="48.302208386889376" lon="-0.6271602649403782"><ele>120.50000000000001</ele><time>2026-04-07T16:23:11Z</time></trkpt><trkpt lat="48.3022191844797" lon="-0.6272944389552055"><ele>121.0</ele><time>2026-04-07T16:23:14Z</time></trkpt><trkpt lat="48.302219117094864" lon="-0.6274338195826347"><ele>120.85714285714285</ele><time>2026-04-07T16:23:17Z</time></trkpt><trkpt lat="48.302231570262514" lon="-0.6275298884604881"><ele>120.7142857142857</ele><time>2026-04-07T16:23:19Z</time></trkpt><trkpt lat="48.3022441402494" lon="-0.6276243286186013"><ele>120.57142857142857</ele><time>2026-04-07T16:23:21Z</time></trkpt><trkpt lat="48.30225422004257" lon="-0.6277225435300836"><ele>120.42857142857142</ele><time>2026-04-07T16:23:23Z</time></trkpt><trkpt lat="48.302260288551416" lon="-0.6278206371338305"><ele>120.28571428571428</ele><time>2026-04-07T16:23:25Z</time></trkpt><trkpt lat="48.30228582666109" lon="-0.6279606633300688"><ele>120.14285714285714</ele><time>2026-04-07T16:23:28Z</time></trkpt><trkpt lat="48.30228417114481" lon="-0.6280800662544186"><ele>120.0</ele><time>2026-04-07T16:23:31Z</time></trkpt><trkpt lat="48.30231067846231" lon="-0.6281675187316459"><ele>120.0</ele><time>2026-04-07T16:23:33Z</time></trkpt><trkpt lat="48.302318688415994" lon="-0.6282950081395501"><ele>120.0</ele><time>2026-04-07T16:23:36Z</time></trkpt><trkpt lat="48.302347102453474" lon="-0.6284242525792567"><ele>120.0</ele><time>2026-04-07T16:23:39Z</time></trkpt><trkpt lat="48.30236839361614" lon="-0.6285559740292045"><ele>120.0</ele><time>2026-04-07T16:23:42Z</time></trkpt><trkpt lat="48.30239662420009" lon="-0.6286884544245083"><ele>120.0</ele><time>2026-04-07T16:23:45Z</time></trkpt><trkpt lat="48.30243198987694" lon="-0.6288169962521806"><ele>120.33333333333333</ele><time>2026-04-07T16:23:48Z</time></trkpt><trkpt lat="48.30246660993772" lon="-0.6289058843666354"><ele>120.66666666666666</ele><time>2026-04-07T16:23:50Z</time></trkpt><trkpt lat="48.302493609699525" lon="-0.6290302782981043"><ele>121.0</ele><time>2026-04-07T16:23:53Z</time></trkpt><trkpt lat="48.30252847195513" lon="-0.6291117758030514"><ele>121.33333333333333</ele><time>2026-04-07T16:23:55Z</time></trkpt><trkpt lat="48.302563923638736" lon="-0.6291903129837357"><ele>121.66666666666666</ele><time>2026-04-07T16:23:57Z</time></trkpt><trkpt lat="48.302616170881386" lon="-0.6292986134515882"><ele>122.0</ele><time>2026-04-07T16:24:00Z</time></trkpt><trkpt lat="48.30266774670801" lon="-0.6294033971679158"><ele>122.49999999999999</ele><time>2026-04-07T16:24:03Z</time></trkpt><trkpt lat="48.30271011349367" lon="-0.6294785993637251"><ele>123.0</ele><time>2026-04-07T16:24:05Z</time></trkpt><trkpt lat="48.30275289569956" lon="-0.6295568881737359"><ele>123.5</ele><time>2026-04-07T16:24:07Z</time></trkpt><trkpt lat="48.30281817142671" lon="-0.6296535967285884"><ele>124.0</ele><time>2026-04-07T16:24:10Z</time></trkpt><trkpt lat="48.3028719784808" lon="-0.629762455305358"><ele>124.49999999999999</ele><time>2026-04-07T16:24:13Z</time></trkpt><trkpt lat="48.302925401190265" lon="-0.6298194771280557"><ele>125.0</ele><time>2026-04-07T16:24:15Z</time></trkpt><trkpt lat="48.30298918960771" lon="-0.6299080561526403"><ele>124.99999999999999</ele><time>2026-04-07T16:24:18Z</time></trkpt><trkpt lat="48.30305333696318" lon="-0.6299851271561101"><ele>125.0</ele><time>2026-04-07T16:24:21Z</time></trkpt><trkpt lat="48.30310261637599" lon="-0.6300554865663327"><ele>125.0</ele><time>2026-04-07T16:24:23.001Z</time></trkpt><trkpt lat="48.30315154918004" lon="-0.6301310187717041"><ele>125.0</ele><time>2026-04-07T16:24:26.001Z</time></trkpt><trkpt lat="48.303221472799855" lon="-0.6301625092440253"><ele>124.99999999999999</ele><time>2026-04-07T16:24:28.001Z</time></trkpt><trkpt lat="48.30329572359757" lon="-0.6302267267721381"><ele>125.0</ele><time>2026-04-07T16:24:31.001Z</time></trkpt><trkpt lat="48.30336744302511" lon="-0.6303224390894135"><ele>125.66666666666666</ele><time>2026-04-07T16:24:34.001Z</time></trkpt><trkpt lat="48.30344334709753" lon="-0.6303785024487434"><ele>126.33333333333333</ele><time>2026-04-07T16:24:37.001Z</time></trkpt><trkpt lat="48.3035214578114" lon="-0.6304266925926727"><ele>127.0</ele><time>2026-04-07T16:24:40.001Z</time></trkpt><trkpt lat="48.30359026068461" lon="-0.6304744154048467"><ele>127.66666666666666</ele><time>2026-04-07T16:24:43.001Z</time></trkpt><trkpt lat="48.30367496971298" lon="-0.6305149982417857"><ele>128.33333333333334</ele><time>2026-04-07T16:24:46.001Z</time></trkpt><trkpt lat="48.30374373411431" lon="-0.6305558324317448"><ele>129.0</ele><time>2026-04-07T16:24:48.001Z</time></trkpt><trkpt lat="48.30380372586675" lon="-0.6306089000509455"><ele>129.0</ele><time>2026-04-07T16:24:51.001Z</time></trkpt><trkpt lat="48.30388699169729" lon="-0.6306418751012933"><ele>129.0</ele><time>2026-04-07T16:24:54.001Z</time></trkpt><trkpt lat="48.303968503137376" lon="-0.630664179679574"><ele>129.0</ele><time>2026-04-07T16:24:57.001Z</time></trkpt><trkpt lat="48.30405005570837" lon="-0.6306961170289902"><ele>129.0</ele><time>2026-04-07T16:25:00Z</time></trkpt><trkpt lat="48.30413600095564" lon="-0.6307458013331121"><ele>129.0</ele><time>2026-04-07T16:25:03Z</time></trkpt><trkpt lat="48.30420762947111" lon="-0.6307797506677879"><ele>129.0</ele><time>2026-04-07T16:25:06Z</time></trkpt><trkpt lat="48.30426854851533" lon="-0.6308036954783343"><ele>127.66666666666667</ele><time>2026-04-07T16:25:09Z</time></trkpt><trkpt lat="48.30435612637989" lon="-0.6308414236796988"><ele>126.33333333333334</ele><time>2026-04-07T16:25:12Z</time></trkpt><trkpt lat="48.304425485098065" lon="-0.630865675114713"><ele>125.0</ele><time>2026-04-07T16:25:15Z</time></trkpt><trkpt lat="48.3045057797405" lon="-0.6309009426157786"><ele>123.66666666666667</ele><time>2026-04-07T16:25:18Z</time></trkpt><trkpt lat="48.304584766361735" lon="-0.6309297908210564"><ele>122.33333333333334</ele><time>2026-04-07T16:25:21Z</time></trkpt><trkpt lat="48.304669497224815" lon="-0.6309631358580912"><ele>121.0</ele><time>2026-04-07T16:25:24Z</time></trkpt><trkpt lat="48.30475326385986" lon="-0.6309980896934582"><ele>121.00000000000001</ele><time>2026-04-07T16:25:27Z</time></trkpt><trkpt lat="48.304814659639284" lon="-0.6310654203069013"><ele>121.0</ele><time>2026-04-07T16:25:30Z</time></trkpt><trkpt lat="48.304892372837124" lon="-0.6311101518693114"><ele>121.0</ele><time>2026-04-07T16:25:33Z</time></trkpt><trkpt lat="48.30497602445018" lon="-0.6311148249350703"><ele>121.0</ele><time>2026-04-07T16:25:36Z</time></trkpt><trkpt lat="48.305040788321044" lon="-0.6311309083300298"><ele>121.00000000000001</ele><time>2026-04-07T16:25:40Z</time></trkpt><trkpt lat="48.3051157417189" lon="-0.6311637345532974"><ele>121.0</ele><time>2026-04-07T16:25:45Z</time></trkpt><trkpt lat="48.305177191492405" lon="-0.6311951755161958"><ele>121.42857142857142</ele><time>2026-04-07T16:25:51Z</time></trkpt><trkpt lat="48.305243910525256" lon="-0.6312192539115189"><ele>121.85714285714285</ele><time>2026-04-07T16:25:56Z</time></trkpt><trkpt lat="48.305307297826744" lon="-0.6312622248615573"><ele>122.28571428571428</ele><time>2026-04-07T16:26:01Z</time></trkpt><trkpt lat="48.30538505282447" lon="-0.6312616326640766"><ele>122.71428571428572</ele><time>2026-04-07T16:26:07Z</time></trkpt><trkpt lat="48.305446056255626" lon="-0.6313002298919735"><ele>123.14285714285715</ele><time>2026-04-07T16:26:12Z</time></trkpt><trkpt lat="48.30551417239471" lon="-0.6312875275530077"><ele>123.57142857142858</ele><time>2026-04-07T16:26:17Z</time></trkpt><trkpt lat="48.3055722607059" lon="-0.6313391662448778"><ele>124.0</ele><time>2026-04-07T16:26:21Z</time></trkpt><trkpt lat="48.30563748835995" lon="-0.6313718687260995"><ele>124.28571428571429</ele><time>2026-04-07T16:26:26Z</time></trkpt><trkpt lat="48.30570829722406" lon="-0.6313944011551811"><ele>124.57142857142858</ele><time>2026-04-07T16:26:31.001Z</time></trkpt><trkpt lat="48.30577914444055" lon="-0.6314233246655363"><ele>124.85714285714286</ele><time>2026-04-07T16:26:36.001Z</time></trkpt><trkpt lat="48.30584741567409" lon="-0.6314735571409452"><ele>125.14285714285714</ele><time>2026-04-07T16:26:41.001Z</time></trkpt><trkpt lat="48.305904914668155" lon="-0.6315183073782383"><ele>125.42857142857143</ele><time>2026-04-07T16:26:45.001Z</time></trkpt><trkpt lat="48.30597156968497" lon="-0.631525629643998"><ele>125.71428571428572</ele><time>2026-04-07T16:26:49.001Z</time></trkpt><trkpt lat="48.30603485894205" lon="-0.631538363262688"><ele>126.0</ele><time>2026-04-07T16:26:53.001Z</time></trkpt><trkpt lat="48.30611099097126" lon="-0.6315455498752622"><ele>126.0</ele><time>2026-04-07T16:26:58.001Z</time></trkpt><trkpt lat="48.3061736987725" lon="-0.6315583751578779"><ele>126.0</ele><time>2026-04-07T16:27:02.001Z</time></trkpt><trkpt lat="48.3062470737103" lon="-0.631602658797488"><ele>126.0</ele><time>2026-04-07T16:27:07Z</time></trkpt><trkpt lat="48.30630639215351" lon="-0.6316350495503483"><ele>126.0</ele><time>2026-04-07T16:27:11Z</time></trkpt><trkpt lat="48.30637251362298" lon="-0.6316674863054287"><ele>126.0</ele><time>2026-04-07T16:27:16Z</time></trkpt><trkpt lat="48.306436214234864" lon="-0.6316912535023168"><ele>126.0</ele><time>2026-04-07T16:27:20Z</time></trkpt><trkpt lat="48.30649805706153" lon="-0.631719542080833"><ele>126.0</ele><time>2026-04-07T16:27:24Z</time></trkpt><trkpt lat="48.30655870503809" lon="-0.6317539809238859"><ele>126.0</ele><time>2026-04-07T16:27:28Z</time></trkpt><trkpt lat="48.306631005150635" lon="-0.6317886851322935"><ele>126.0</ele><time>2026-04-07T16:27:33Z</time></trkpt><trkpt lat="48.30669708269729" lon="-0.631837920997529"><ele>126.0</ele><time>2026-04-07T16:27:38Z</time></trkpt><trkpt lat="48.30676001339594" lon="-0.6318435103427447"><ele>126.0</ele><time>2026-04-07T16:27:42Z</time></trkpt><trkpt lat="48.306832713845424" lon="-0.6318824858265916"><ele>126.0</ele><time>2026-04-07T16:27:47Z</time></trkpt><trkpt lat="48.30690031817928" lon="-0.6319145682486466"><ele>126.0</ele><time>2026-04-07T16:27:52Z</time></trkpt><trkpt lat="48.30694836506722" lon="-0.6319838703477504"><ele>126.0</ele><time>2026-04-07T16:27:56Z</time></trkpt><trkpt lat="48.307018486152124" lon="-0.6320263641334778"><ele>126.14285714285714</ele><time>2026-04-07T16:28:01Z</time></trkpt><trkpt lat="48.30707773010264" lon="-0.6320914272316001"><ele>126.28571428571428</ele><time>2026-04-07T16:28:06Z</time></trkpt><trkpt lat="48.30714024186543" lon="-0.6321573094632427"><ele>126.42857142857143</ele><time>2026-04-07T16:28:11Z</time></trkpt><trkpt lat="48.30719702461587" lon="-0.6322307833535521"><ele>126.57142857142857</ele><time>2026-04-07T16:28:16Z</time></trkpt><trkpt lat="48.30725957957779" lon="-0.6322871921635008"><ele>126.71428571428571</ele><time>2026-04-07T16:28:21Z</time></trkpt><trkpt lat="48.307323192379656" lon="-0.6323416298488441"><ele>126.85714285714286</ele><time>2026-04-07T16:28:27Z</time></trkpt><trkpt lat="48.30738148568494" lon="-0.6323900754352395"><ele>127.0</ele><time>2026-04-07T16:28:32Z</time></trkpt><trkpt lat="48.30743745322807" lon="-0.6324341925234586"><ele>127.0</ele><time>2026-04-07T16:28:36Z</time></trkpt><trkpt lat="48.30750271526108" lon="-0.6324876874727499"><ele>127.0</ele><time>2026-04-07T16:28:41Z</time></trkpt><trkpt lat="48.307553263816814" lon="-0.6325714764141228"><ele>127.0</ele><time>2026-04-07T16:28:46Z</time></trkpt><trkpt lat="48.3076086695543" lon="-0.6326243457163807"><ele>127.0</ele><time>2026-04-07T16:28:50Z</time></trkpt><trkpt lat="48.30767096152952" lon="-0.6326957572678916"><ele>127.0</ele><time>2026-04-07T16:28:55Z</time></trkpt><trkpt lat="48.30771546221109" lon="-0.6327752781796443"><ele>127.0</ele><time>2026-04-07T16:28:59Z</time></trkpt><trkpt lat="48.30778196256529" lon="-0.6328320805554536"><ele>127.0</ele><time>2026-04-07T16:29:04Z</time></trkpt><trkpt lat="48.30785073134633" lon="-0.632874014275392"><ele>127.14285714285714</ele><time>2026-04-07T16:29:09Z</time></trkpt><trkpt lat="48.30790109006525" lon="-0.6329319866297162"><ele>127.28571428571428</ele><time>2026-04-07T16:29:13Z</time></trkpt><trkpt lat="48.307960706312834" lon="-0.6329843913456311"><ele>127.42857142857142</ele><time>2026-04-07T16:29:17Z</time></trkpt><trkpt lat="48.30802995983166" lon="-0.6330389531284629"><ele>127.57142857142857</ele><time>2026-04-07T16:29:22Z</time></trkpt><trkpt lat="48.30809266681313" lon="-0.633098879731178"><ele>127.7142857142857</ele><time>2026-04-07T16:29:27Z</time></trkpt><trkpt lat="48.30812836861662" lon="-0.6331825038123577"><ele>127.85714285714285</ele><time>2026-04-07T16:29:31Z</time></trkpt><trkpt lat="48.30817284415774" lon="-0.6332682304545253"><ele>128.0</ele><time>2026-04-07T16:29:36Z</time></trkpt><trkpt lat="48.308237276418666" lon="-0.6332722645141519"><ele>127.99999999999999</ele><time>2026-04-07T16:29:40Z</time></trkpt><trkpt lat="48.30830961846667" lon="-0.6333073993312461"><ele>128.0</ele><time>2026-04-07T16:29:45Z</time></trkpt><trkpt lat="48.308330820788896" lon="-0.6333973216374766"><ele>128.0</ele><time>2026-04-07T16:29:49Z</time></trkpt><trkpt lat="48.30832650689722" lon="-0.6335088325856842"><ele>128.0</ele><time>2026-04-07T16:29:54Z</time></trkpt><trkpt lat="48.30832599163762" lon="-0.6336367754272959"><ele>127.99999999999999</ele><time>2026-04-07T16:29:58Z</time></trkpt><trkpt lat="48.30833559914257" lon="-0.6337546734682189"><ele>128.0</ele><time>2026-04-07T16:30:01Z</time></trkpt><trkpt lat="48.30835533250413" lon="-0.6338599908247181"><ele>127.99999999999999</ele><time>2026-04-07T16:30:04Z</time></trkpt><trkpt lat="48.30835397001668" lon="-0.6339825627356425"><ele>128.0</ele><time>2026-04-07T16:30:06Z</time></trkpt><trkpt lat="48.30834553076035" lon="-0.6341298225770383"><ele>128.0</ele><time>2026-04-07T16:30:08Z</time></trkpt><trkpt lat="48.308345533918235" lon="-0.6342371207366662"><ele>128.0</ele><time>2026-04-07T16:30:10Z</time></trkpt><trkpt lat="48.30834535475792" lon="-0.634336080251511"><ele>127.99999999999999</ele><time>2026-04-07T16:30:12Z</time></trkpt><trkpt lat="48.308339490286556" lon="-0.6344425719046817"><ele>128.0</ele><time>2026-04-07T16:30:14Z</time></trkpt><trkpt lat="48.308348400917744" lon="-0.6345369977288094"><ele>128.14285714285714</ele><time>2026-04-07T16:30:16Z</time></trkpt><trkpt lat="48.30835003863178" lon="-0.634640685260234"><ele>128.28571428571428</ele><time>2026-04-07T16:30:18Z</time></trkpt><trkpt lat="48.30834674763871" lon="-0.6347395896700724"><ele>128.42857142857142</ele><time>2026-04-07T16:30:19.999Z</time></trkpt><trkpt lat="48.30835326611217" lon="-0.6348360783215103"><ele>128.57142857142856</ele><time>2026-04-07T16:30:21.999Z</time></trkpt><trkpt lat="48.30835395684321" lon="-0.6349382899469668"><ele>128.71428571428572</ele><time>2026-04-07T16:30:23.999Z</time></trkpt><trkpt lat="48.30836460881554" lon="-0.6350748328596982"><ele>128.85714285714283</ele><time>2026-04-07T16:30:26.999Z</time></trkpt><trkpt lat="48.308358752547875" lon="-0.6351725293447852"><ele>129.0</ele><time>2026-04-07T16:30:28.999Z</time></trkpt><trkpt lat="48.308363498923704" lon="-0.6353151308793228"><ele>129.83333333333334</ele><time>2026-04-07T16:30:31.999Z</time></trkpt><trkpt lat="48.308375037643025" lon="-0.6354480817647212"><ele>130.66666666666666</ele><time>2026-04-07T16:30:34.999Z</time></trkpt><trkpt lat="48.30838398261332" lon="-0.6355821961364221"><ele>131.5</ele><time>2026-04-07T16:30:37.999Z</time></trkpt><trkpt lat="48.30839108963387" lon="-0.6357212298214024"><ele>132.33333333333331</ele><time>2026-04-07T16:30:41Z</time></trkpt><trkpt lat="48.30839426125072" lon="-0.6358543501962486"><ele>133.16666666666666</ele><time>2026-04-07T16:30:44Z</time></trkpt><trkpt lat="48.30839882970026" lon="-0.6359854270226929"><ele>134.0</ele><time>2026-04-07T16:30:47Z</time></trkpt><trkpt lat="48.308401056855665" lon="-0.636106977049898"><ele>135.16666666666666</ele><time>2026-04-07T16:30:50Z</time></trkpt><trkpt lat="48.30839504986491" lon="-0.636235722951817"><ele>136.33333333333331</ele><time>2026-04-07T16:30:53Z</time></trkpt><trkpt lat="48.30838246436002" lon="-0.6363583028033784"><ele>137.5</ele><time>2026-04-07T16:30:56Z</time></trkpt><trkpt lat="48.30838471054434" lon="-0.6364842386001468"><ele>138.66666666666666</ele><time>2026-04-07T16:30:59Z</time></trkpt><trkpt lat="48.3083895157336" lon="-0.6366133524245726"><ele>139.83333333333334</ele><time>2026-04-07T16:31:02Z</time></trkpt><trkpt lat="48.3083997195237" lon="-0.6367428988598907"><ele>141.0</ele><time>2026-04-07T16:31:05Z</time></trkpt><trkpt lat="48.30840234662408" lon="-0.6368595697619905"><ele>140.83333333333334</ele><time>2026-04-07T16:31:08Z</time></trkpt><trkpt lat="48.30841295897468" lon="-0.6369893597564408"><ele>140.66666666666666</ele><time>2026-04-07T16:31:11Z</time></trkpt><trkpt lat="48.30842622879076" lon="-0.6371132987910785"><ele>140.5</ele><time>2026-04-07T16:31:14Z</time></trkpt><trkpt lat="48.30845028153543" lon="-0.6372371907674921"><ele>140.33333333333331</ele><time>2026-04-07T16:31:17Z</time></trkpt><trkpt lat="48.30844773396847" lon="-0.6373610666895454"><ele>140.16666666666666</ele><time>2026-04-07T16:31:20Z</time></trkpt><trkpt lat="48.30845486706905" lon="-0.637477108207915"><ele>140.0</ele><time>2026-04-07T16:31:23Z</time></trkpt><trkpt lat="48.30845893331364" lon="-0.6376013234399733"><ele>140.0</ele><time>2026-04-07T16:31:26Z</time></trkpt><trkpt lat="48.30845229485658" lon="-0.6377261751915774"><ele>140.0</ele><time>2026-04-07T16:31:29Z</time></trkpt><trkpt lat="48.30846841890655" lon="-0.6378494773422191"><ele>140.0</ele><time>2026-04-07T16:31:32Z</time></trkpt><trkpt lat="48.30846754522746" lon="-0.6379781316567062"><ele>140.0</ele><time>2026-04-07T16:31:35Z</time></trkpt><trkpt lat="48.30846344866335" lon="-0.6381089821572216"><ele>140.0</ele><time>2026-04-07T16:31:38Z</time></trkpt><trkpt lat="48.30846366671638" lon="-0.638226671983651"><ele>140.0</ele><time>2026-04-07T16:31:41Z</time></trkpt><trkpt lat="48.30845261581155" lon="-0.6383438402319457"><ele>140.16666666666666</ele><time>2026-04-07T16:31:44Z</time></trkpt><trkpt lat="48.30845433065313" lon="-0.638471415618188"><ele>140.33333333333331</ele><time>2026-04-07T16:31:47Z</time></trkpt><trkpt lat="48.30845626527996" lon="-0.638587836033064"><ele>140.5</ele><time>2026-04-07T16:31:50Z</time></trkpt><trkpt lat="48.308460992540034" lon="-0.6387135017704517"><ele>140.66666666666666</ele><time>2026-04-07T16:31:53Z</time></trkpt><trkpt lat="48.30846456453401" lon="-0.6388367592926157"><ele>140.83333333333334</ele><time>2026-04-07T16:31:56Z</time></trkpt><trkpt lat="48.308471491019716" lon="-0.6389604735470068"><ele>141.0</ele><time>2026-04-07T16:31:59Z</time></trkpt><trkpt lat="48.30847052394298" lon="-0.6390904716243686"><ele>141.0</ele><time>2026-04-07T16:32:02Z</time></trkpt><trkpt lat="48.30848949640365" lon="-0.639206227308736"><ele>141.0</ele><time>2026-04-07T16:32:05Z</time></trkpt><trkpt lat="48.30849517646733" lon="-0.6393089208056945"><ele>141.0</ele><time>2026-04-07T16:32:09Z</time></trkpt><trkpt lat="48.30850210110549" lon="-0.6394064501601936"><ele>141.0</ele><time>2026-04-07T16:32:13.999Z</time></trkpt><trkpt lat="48.308530240814534" lon="-0.6395206510055115"><ele>141.0</ele><time>2026-04-07T16:32:18.999Z</time></trkpt><trkpt lat="48.30853773178648" lon="-0.6396338666165968"><ele>141.0</ele><time>2026-04-07T16:32:24.999Z</time></trkpt><trkpt lat="48.30851238438234" lon="-0.6397363006877331"><ele>141.0</ele><time>2026-04-07T16:32:29.999Z</time></trkpt><trkpt lat="48.30852256190459" lon="-0.6398450286406159"><ele>141.0</ele><time>2026-04-07T16:32:34.999Z</time></trkpt><trkpt lat="48.30852325470142" lon="-0.639954804741956"><ele>141.0</ele><time>2026-04-07T16:32:39.999Z</time></trkpt><trkpt lat="48.3085248714124" lon="-0.640051409966693"><ele>141.0</ele><time>2026-04-07T16:32:43.999Z</time></trkpt><trkpt lat="48.30852326938478" lon="-0.6401671408584078"><ele>141.0</ele><time>2026-04-07T16:32:49Z</time></trkpt><trkpt lat="48.30853294304434" lon="-0.640270307809329"><ele>141.0</ele><time>2026-04-07T16:32:53Z</time></trkpt><trkpt lat="48.308538312767006" lon="-0.6403788173298266"><ele>141.0</ele><time>2026-04-07T16:32:57Z</time></trkpt><trkpt lat="48.30852412165376" lon="-0.640492586739051"><ele>141.0</ele><time>2026-04-07T16:33:01Z</time></trkpt><trkpt lat="48.308528609197694" lon="-0.6406003546126179"><ele>141.0</ele><time>2026-04-07T16:33:05Z</time></trkpt><trkpt lat="48.30853514827649" lon="-0.640695646248839"><ele>141.0</ele><time>2026-04-07T16:33:09Z</time></trkpt><trkpt lat="48.30853894291482" lon="-0.6407938822230851"><ele>141.0</ele><time>2026-04-07T16:33:13Z</time></trkpt><trkpt lat="48.308549894698125" lon="-0.6408963070202699"><ele>141.0</ele><time>2026-04-07T16:33:17Z</time></trkpt><trkpt lat="48.308552016286406" lon="-0.641003775848312"><ele>141.0</ele><time>2026-04-07T16:33:21Z</time></trkpt><trkpt lat="48.30857108169912" lon="-0.6411001681713773"><ele>141.0</ele><time>2026-04-07T16:33:25Z</time></trkpt><trkpt lat="48.30857182268936" lon="-0.6411985517720172"><ele>141.0</ele><time>2026-04-07T16:33:29Z</time></trkpt><trkpt lat="48.308569014931976" lon="-0.6412989762793777"><ele>141.14285714285714</ele><time>2026-04-07T16:33:33Z</time></trkpt><trkpt lat="48.30856313927526" lon="-0.6413989380670874"><ele>141.28571428571428</ele><time>2026-04-07T16:33:37Z</time></trkpt><trkpt lat="48.30857490139344" lon="-0.6415170839492655"><ele>141.42857142857142</ele><time>2026-04-07T16:33:42Z</time></trkpt><trkpt lat="48.308581675472574" lon="-0.6416218314129806"><ele>141.57142857142856</ele><time>2026-04-07T16:33:46Z</time></trkpt><trkpt lat="48.308600439139134" lon="-0.6417248612469652"><ele>141.7142857142857</ele><time>2026-04-07T16:33:50Z</time></trkpt><trkpt lat="48.30861537184355" lon="-0.6418172219200959"><ele>141.85714285714286</ele><time>2026-04-07T16:33:54Z</time></trkpt><trkpt lat="48.30860429674813" lon="-0.6419201560852911"><ele>142.0</ele><time>2026-04-07T16:33:58Z</time></trkpt><trkpt lat="48.30864215739368" lon="-0.6419978142111368"><ele>142.14285714285714</ele><time>2026-04-07T16:34:02Z</time></trkpt><trkpt lat="48.30869513094008" lon="-0.6420792390648994"><ele>142.28571428571428</ele><time>2026-04-07T16:34:07Z</time></trkpt><trkpt lat="48.308740119571425" lon="-0.6421476474589407"><ele>142.42857142857142</ele><time>2026-04-07T16:34:11Z</time></trkpt><trkpt lat="48.30876427257213" lon="-0.6422350883170276"><ele>142.57142857142856</ele><time>2026-04-07T16:34:15Z</time></trkpt><trkpt lat="48.3087624569595" lon="-0.6423323226294883"><ele>142.71428571428572</ele><time>2026-04-07T16:34:18Z</time></trkpt><trkpt lat="48.30876253055491" lon="-0.6424399373762187"><ele>142.85714285714283</ele><time>2026-04-07T16:34:22Z</time></trkpt><trkpt lat="48.30875201235004" lon="-0.6425342712909453"><ele>143.0</ele><time>2026-04-07T16:34:26Z</time></trkpt><trkpt lat="48.30870285875913" lon="-0.6425963457300183"><ele>142.99999999999997</ele><time>2026-04-07T16:34:29.999Z</time></trkpt><trkpt lat="48.30865455738267" lon="-0.6426800415652376"><ele>143.0</ele><time>2026-04-07T16:34:34.999Z</time></trkpt><trkpt lat="48.30860319175605" lon="-0.6427457033099295"><ele>143.0</ele><time>2026-04-07T16:34:38.999Z</time></trkpt><trkpt lat="48.308600087978455" lon="-0.6428423543374303"><ele>143.0</ele><time>2026-04-07T16:34:40.999Z</time></trkpt><trkpt lat="48.3086105636698" lon="-0.6429712346556381"><ele>143.0</ele><time>2026-04-07T16:34:43.999Z</time></trkpt><trkpt lat="48.30861272219617" lon="-0.6430754995050962"><ele>142.99999999999997</ele><time>2026-04-07T16:34:45.999Z</time></trkpt><trkpt lat="48.30861660367155" lon="-0.6432060150976969"><ele>143.0</ele><time>2026-04-07T16:34:47.999Z</time></trkpt><trkpt lat="48.30861814077601" lon="-0.6433451776229476"><ele>143.14285714285714</ele><time>2026-04-07T16:34:49.999Z</time></trkpt><trkpt lat="48.30862867884665" lon="-0.6434583414542799"><ele>143.28571428571428</ele><time>2026-04-07T16:34:52Z</time></trkpt><trkpt lat="48.308638833862574" lon="-0.6435644285970181"><ele>143.42857142857144</ele><time>2026-04-07T16:34:54Z</time></trkpt><trkpt lat="48.3086395750868" lon="-0.643659230461145"><ele>143.57142857142856</ele><time>2026-04-07T16:34:56Z</time></trkpt><trkpt lat="48.3086666881613" lon="-0.6437488812449225"><ele>143.71428571428572</ele><time>2026-04-07T16:34:58Z</time></trkpt><trkpt lat="48.308648480603765" lon="-0.6438471464062228"><ele>143.85714285714286</ele><time>2026-04-07T16:35:00Z</time></trkpt><trkpt lat="48.308654255865" lon="-0.6439440729114085"><ele>144.0</ele><time>2026-04-07T16:35:02Z</time></trkpt><trkpt lat="48.30866349668737" lon="-0.6440402945597304"><ele>144.2857142857143</ele><time>2026-04-07T16:35:04Z</time></trkpt><trkpt lat="48.30866391786325" lon="-0.64413670527716"><ele>144.57142857142858</ele><time>2026-04-07T16:35:06Z</time></trkpt><trkpt lat="48.3086566515562" lon="-0.6442352210654124"><ele>144.85714285714286</ele><time>2026-04-07T16:35:08Z</time></trkpt><trkpt lat="48.30865998560695" lon="-0.6443358772405355"><ele>145.14285714285717</ele><time>2026-04-07T16:35:10Z</time></trkpt><trkpt lat="48.30866447504814" lon="-0.6444661236556298"><ele>145.42857142857144</ele><time>2026-04-07T16:35:13Z</time></trkpt><trkpt lat="48.30866758695603" lon="-0.6445689106976878"><ele>145.71428571428572</ele><time>2026-04-07T16:35:15Z</time></trkpt><trkpt lat="48.308676110364935" lon="-0.6446633743701736"><ele>146.0</ele><time>2026-04-07T16:35:17Z</time></trkpt><trkpt lat="48.30867766593069" lon="-0.644796874880435"><ele>146.4</ele><time>2026-04-07T16:35:20Z</time></trkpt><trkpt lat="48.30867891534541" lon="-0.6449346889943245"><ele>146.8</ele><time>2026-04-07T16:35:23Z</time></trkpt><trkpt lat="48.308679629333255" lon="-0.6450708245677974"><ele>147.20000000000002</ele><time>2026-04-07T16:35:26Z</time></trkpt><trkpt lat="48.308686670030454" lon="-0.645206516568509"><ele>147.6</ele><time>2026-04-07T16:35:29Z</time></trkpt><trkpt lat="48.30869139072103" lon="-0.6453482674408636"><ele>148.0</ele><time>2026-04-07T16:35:32Z</time></trkpt><trkpt lat="48.30869896230446" lon="-0.6454786651305733"><ele>148.66666666666669</ele><time>2026-04-07T16:35:35Z</time></trkpt><trkpt lat="48.30869625789793" lon="-0.6456069080137062"><ele>149.33333333333334</ele><time>2026-04-07T16:35:38Z</time></trkpt><trkpt lat="48.30870374103538" lon="-0.6457367213769417"><ele>150.0</ele><time>2026-04-07T16:35:41Z</time></trkpt><trkpt lat="48.308706056777694" lon="-0.6458350247074216"><ele>150.66666666666666</ele><time>2026-04-07T16:35:43Z</time></trkpt><trkpt lat="48.30870385853203" lon="-0.6459571555366681"><ele>151.33333333333331</ele><time>2026-04-07T16:35:46Z</time></trkpt><trkpt lat="48.30870558309016" lon="-0.646053742896038"><ele>152.0</ele><time>2026-04-07T16:35:48Z</time></trkpt><trkpt lat="48.308699830907514" lon="-0.6461718583464965"><ele>152.5</ele><time>2026-04-07T16:35:51Z</time></trkpt><trkpt lat="48.3087081614394" lon="-0.6462944299032543"><ele>153.0</ele><time>2026-04-07T16:35:54Z</time></trkpt><trkpt lat="48.308701105042594" lon="-0.6464128009964994"><ele>153.5</ele><time>2026-04-07T16:35:57Z</time></trkpt><trkpt lat="48.30870951584912" lon="-0.6465322696480229"><ele>154.0</ele><time>2026-04-07T16:36:00Z</time></trkpt><trkpt lat="48.30871869550553" lon="-0.6466630574866746"><ele>154.5</ele><time>2026-04-07T16:36:03Z</time></trkpt><trkpt lat="48.30872915255689" lon="-0.6467754846951124"><ele>155.0</ele><time>2026-04-07T16:36:06Z</time></trkpt><trkpt lat="48.308726325690124" lon="-0.6468926475888953"><ele>155.33333333333331</ele><time>2026-04-07T16:36:09Z</time></trkpt><trkpt lat="48.3087328912362" lon="-0.6469876037198767"><ele>155.66666666666666</ele><time>2026-04-07T16:36:11Z</time></trkpt><trkpt lat="48.30873378486715" lon="-0.6470919008978195"><ele>156.0</ele><time>2026-04-07T16:36:13Z</time></trkpt><trkpt lat="48.30874480076213" lon="-0.6472059224707957"><ele>156.33333333333334</ele><time>2026-04-07T16:36:16Z</time></trkpt><trkpt lat="48.308750952668476" lon="-0.6473374593763325"><ele>156.66666666666669</ele><time>2026-04-07T16:36:19Z</time></trkpt><trkpt lat="48.30875115801541" lon="-0.6474562650630942"><ele>157.0</ele><time>2026-04-07T16:36:22Z</time></trkpt><trkpt lat="48.30875460939838" lon="-0.6475844052597588"><ele>156.99999999999997</ele><time>2026-04-07T16:36:24.999Z</time></trkpt><trkpt lat="48.30875948155226" lon="-0.6477088690253984"><ele>157.0</ele><time>2026-04-07T16:36:27.999Z</time></trkpt><trkpt lat="48.30876507638691" lon="-0.6478310531785394"><ele>157.0</ele><time>2026-04-07T16:36:30.999Z</time></trkpt><trkpt lat="48.308766054633985" lon="-0.6479496342228194"><ele>157.0</ele><time>2026-04-07T16:36:33.999Z</time></trkpt><trkpt lat="48.308774606492214" lon="-0.6480471624335118"><ele>157.0</ele><time>2026-04-07T16:36:37.999Z</time></trkpt><trkpt lat="48.30876278770372" lon="-0.6481542241924725"><ele>156.99999999999997</ele><time>2026-04-07T16:36:41.999Z</time></trkpt><trkpt lat="48.308785047204246" lon="-0.6482469261920887"><ele>157.0</ele><time>2026-04-07T16:36:46.999Z</time></trkpt><trkpt lat="48.308781152710615" lon="-0.6483602178945772"><ele>157.14285714285714</ele><time>2026-04-07T16:36:53.999Z</time></trkpt><trkpt lat="48.308781449062664" lon="-0.6484709604735777"><ele>157.28571428571428</ele><time>2026-04-07T16:37:00Z</time></trkpt><trkpt lat="48.30878554014413" lon="-0.6485660416947802"><ele>157.42857142857144</ele><time>2026-04-07T16:37:06Z</time></trkpt><trkpt lat="48.30879880538586" lon="-0.6486700732896733"><ele>157.57142857142856</ele><time>2026-04-07T16:37:12Z</time></trkpt><trkpt lat="48.30879867949738" lon="-0.6487669656232641"><ele>157.71428571428572</ele><time>2026-04-07T16:37:16Z</time></trkpt><trkpt lat="48.30879346374206" lon="-0.6488694258634261"><ele>157.85714285714286</ele><time>2026-04-07T16:37:21Z</time></trkpt><trkpt lat="48.30879556022843" lon="-0.6489687548516693"><ele>158.0</ele><time>2026-04-07T16:37:26Z</time></trkpt><trkpt lat="48.30878684340404" lon="-0.649075606893773"><ele>157.85714285714286</ele><time>2026-04-07T16:37:31Z</time></trkpt><trkpt lat="48.30878950670666" lon="-0.6491849521904949"><ele>157.71428571428572</ele><time>2026-04-07T16:37:36Z</time></trkpt><trkpt lat="48.30880095734394" lon="-0.6492894675638069"><ele>157.57142857142856</ele><time>2026-04-07T16:37:41Z</time></trkpt><trkpt lat="48.308793268604255" lon="-0.6493855982874481"><ele>157.42857142857144</ele><time>2026-04-07T16:37:46Z</time></trkpt><trkpt lat="48.308807093750396" lon="-0.6494792480425639"><ele>157.28571428571428</ele><time>2026-04-07T16:37:51Z</time></trkpt><trkpt lat="48.30882494884039" lon="-0.6495735689739552"><ele>157.14285714285714</ele><time>2026-04-07T16:37:56Z</time></trkpt><trkpt lat="48.308842883930254" lon="-0.6496673338743931"><ele>157.0</ele><time>2026-04-07T16:38:01Z</time></trkpt><trkpt lat="48.308843162490255" lon="-0.6497733257205957"><ele>156.99999999999997</ele><time>2026-04-07T16:38:06Z</time></trkpt><trkpt lat="48.30882913157167" lon="-0.6498739452507835"><ele>157.0</ele><time>2026-04-07T16:38:12Z</time></trkpt><trkpt lat="48.30884071729069" lon="-0.6499775481610798"><ele>157.0</ele><time>2026-04-07T16:38:16Z</time></trkpt><trkpt lat="48.30883708837168" lon="-0.6500870576487902"><ele>157.0</ele><time>2026-04-07T16:38:20.999Z</time></trkpt><trkpt lat="48.308843103072874" lon="-0.6501938935713416"><ele>157.0</ele><time>2026-04-07T16:38:25.999Z</time></trkpt><trkpt lat="48.30884240572703" lon="-0.6502956776392088"><ele>156.99999999999997</ele><time>2026-04-07T16:38:29.999Z</time></trkpt><trkpt lat="48.30885021914697" lon="-0.6504008070573201"><ele>157.0</ele><time>2026-04-07T16:38:34.999Z</time></trkpt><trkpt lat="48.308854154052185" lon="-0.6505161149582301"><ele>156.99999999999997</ele><time>2026-04-07T16:38:39.999Z</time></trkpt><trkpt lat="48.308853929561984" lon="-0.6506243343513082"><ele>157.0</ele><time>2026-04-07T16:38:44.999Z</time></trkpt><trkpt lat="48.30885829845029" lon="-0.6507284603766343"><ele>157.0</ele><time>2026-04-07T16:38:49.999Z</time></trkpt><trkpt lat="48.30885426947162" lon="-0.650844121497166"><ele>157.0</ele><time>2026-04-07T16:38:54.999Z</time></trkpt><trkpt lat="48.30885676932088" lon="-0.6509549793684997"><ele>157.0</ele><time>2026-04-07T16:38:59.999Z</time></trkpt><trkpt lat="48.30886704524472" lon="-0.651059787259034"><ele>156.99999999999997</ele><time>2026-04-07T16:39:04.999Z</time></trkpt><trkpt lat="48.30887257000231" lon="-0.6511637771334989"><ele>157.0</ele><time>2026-04-07T16:39:09.999Z</time></trkpt><trkpt lat="48.30887482406032" lon="-0.6512608676080652"><ele>156.99999999999997</ele><time>2026-04-07T16:39:14.999Z</time></trkpt><trkpt lat="48.308874083455784" lon="-0.6513741182242937"><ele>157.0</ele><time>2026-04-07T16:39:19.999Z</time></trkpt><trkpt lat="48.30887553402346" lon="-0.6514837906500003"><ele>157.0</ele><time>2026-04-07T16:39:24.999Z</time></trkpt><trkpt lat="48.308886234085335" lon="-0.6515871067420996"><ele>157.0</ele><time>2026-04-07T16:39:29.999Z</time></trkpt><trkpt lat="48.308881747712945" lon="-0.65169937758758"><ele>157.0</ele><time>2026-04-07T16:39:34.999Z</time></trkpt><trkpt lat="48.30888461061934" lon="-0.6518152554214521"><ele>156.99999999999997</ele><time>2026-04-07T16:39:40.999Z</time></trkpt><trkpt lat="48.308898409831045" lon="-0.6519200498128178"><ele>157.0</ele><time>2026-04-07T16:39:46.999Z</time></trkpt><trkpt lat="48.30890353573097" lon="-0.6520220729490287"><ele>156.28571428571428</ele><time>2026-04-07T16:39:51.999Z</time></trkpt><trkpt lat="48.308914630960736" lon="-0.6521247584384534"><ele>155.57142857142856</ele><time>2026-04-07T16:39:56.999Z</time></trkpt><trkpt lat="48.30893489243915" lon="-0.6522331253454637"><ele>154.85714285714283</ele><time>2026-04-07T16:40:02.999Z</time></trkpt><trkpt lat="48.308928321740495" lon="-0.6523558783955049"><ele>154.14285714285714</ele><time>2026-04-07T16:40:07.999Z</time></trkpt><trkpt lat="48.30894274814611" lon="-0.6524618778017832"><ele>153.42857142857144</ele><time>2026-04-07T16:40:12.999Z</time></trkpt><trkpt lat="48.308935317043066" lon="-0.6525734702122845"><ele>152.7142857142857</ele><time>2026-04-07T16:40:17.999Z</time></trkpt><trkpt lat="48.308939613610946" lon="-0.6526741496695957"><ele>152.0</ele><time>2026-04-07T16:40:22.999Z</time></trkpt><trkpt lat="48.30894234970288" lon="-0.652779939506312"><ele>152.14285714285714</ele><time>2026-04-07T16:40:27.999Z</time></trkpt><trkpt lat="48.30897690243902" lon="-0.652881568778253"><ele>152.2857142857143</ele><time>2026-04-07T16:40:32.999Z</time></trkpt><trkpt lat="48.30901331534154" lon="-0.652974181159657"><ele>152.42857142857144</ele><time>2026-04-07T16:40:37.999Z</time></trkpt><trkpt lat="48.309051511616" lon="-0.6530614648770432"><ele>152.57142857142856</ele><time>2026-04-07T16:40:42.999Z</time></trkpt><trkpt lat="48.309093719532974" lon="-0.6531485473303247"><ele>152.71428571428572</ele><time>2026-04-07T16:40:47.999Z</time></trkpt><trkpt lat="48.309133595107596" lon="-0.6532316303004546"><ele>152.85714285714286</ele><time>2026-04-07T16:40:52.999Z</time></trkpt><trkpt lat="48.30917525683767" lon="-0.6533162624364023"><ele>153.0</ele><time>2026-04-07T16:40:57.999Z</time></trkpt><trkpt lat="48.30921803478929" lon="-0.6533940607818697"><ele>153.0</ele><time>2026-04-07T16:41:02.999Z</time></trkpt><trkpt lat="48.30928427486795" lon="-0.6534378553419385"><ele>153.0</ele><time>2026-04-07T16:41:07.999Z</time></trkpt><trkpt lat="48.309355797455915" lon="-0.6534704289833261"><ele>153.0</ele><time>2026-04-07T16:41:12.997Z</time></trkpt><trkpt lat="48.30942338549053" lon="-0.6535012633478767"><ele>153.0</ele><time>2026-04-07T16:41:16.997Z</time></trkpt><trkpt lat="48.30948759366006" lon="-0.6535411737856005"><ele>153.0</ele><time>2026-04-07T16:41:19.997Z</time></trkpt><trkpt lat="48.30955509820848" lon="-0.6535705058239919"><ele>153.0</ele><time>2026-04-07T16:41:22.998Z</time></trkpt><trkpt lat="48.309662918813636" lon="-0.6535812464399091"><ele>152.33333333333334</ele><time>2026-04-07T16:41:25.998Z</time></trkpt><trkpt lat="48.30975651784647" lon="-0.6535718965277368"><ele>151.66666666666666</ele><time>2026-04-07T16:41:28.998Z</time></trkpt><trkpt lat="48.309820828009784" lon="-0.6535800756029894"><ele>151.0</ele><time>2026-04-07T16:41:30.998Z</time></trkpt><trkpt lat="48.30990480796227" lon="-0.6535664917075543"><ele>150.33333333333331</ele><time>2026-04-07T16:41:33.998Z</time></trkpt><trkpt lat="48.3099728333705" lon="-0.6535778919707176"><ele>149.66666666666666</ele><time>2026-04-07T16:41:35.998Z</time></trkpt><trkpt lat="48.31004343810207" lon="-0.653571785411235"><ele>149.0</ele><time>2026-04-07T16:41:37.998Z</time></trkpt><trkpt lat="48.31013469916353" lon="-0.6535839632163865"><ele>149.0</ele><time>2026-04-07T16:41:40.999Z</time></trkpt><trkpt lat="48.31019875498048" lon="-0.6535787622093396"><ele>149.0</ele><time>2026-04-07T16:41:42.999Z</time></trkpt><trkpt lat="48.31026148177413" lon="-0.653566484923788"><ele>149.0</ele><time>2026-04-07T16:41:44.999Z</time></trkpt><trkpt lat="48.31034461851886" lon="-0.6535778002449696"><ele>149.0</ele><time>2026-04-07T16:41:47.999Z</time></trkpt><trkpt lat="48.310425378918666" lon="-0.6535778747500682"><ele>149.0</ele><time>2026-04-07T16:41:50.999Z</time></trkpt><trkpt lat="48.31050527018171" lon="-0.6535881953570543"><ele>149.0</ele><time>2026-04-07T16:41:54.999Z</time></trkpt><trkpt lat="48.31057373758573" lon="-0.6535953175005095"><ele>149.0</ele><time>2026-04-07T16:41:57.999Z</time></trkpt><trkpt lat="48.31063972395766" lon="-0.6535846669696256"><ele>149.0</ele><time>2026-04-07T16:42:00.999Z</time></trkpt><trkpt lat="48.31070772602552" lon="-0.6535898043032284"><ele>149.0</ele><time>2026-04-07T16:42:03.999Z</time></trkpt><trkpt lat="48.31077552072666" lon="-0.6535911128176457"><ele>149.0</ele><time>2026-04-07T16:42:06.999Z</time></trkpt><trkpt lat="48.31086751544219" lon="-0.6536008556875781"><ele>149.0</ele><time>2026-04-07T16:42:10.999Z</time></trkpt><trkpt lat="48.31093025384949" lon="-0.6535923769496139"><ele>149.0</ele><time>2026-04-07T16:42:12.999Z</time></trkpt><trkpt lat="48.31101113099554" lon="-0.653637344506695"><ele>149.0</ele><time>2026-04-07T16:42:15.999Z</time></trkpt><trkpt lat="48.311077526288884" lon="-0.6536599422162298"><ele>149.0</ele><time>2026-04-07T16:42:19.999Z</time></trkpt><trkpt lat="48.311107193112186" lon="-0.6537685541967547"><ele>149.0</ele><time>2026-04-07T16:42:21.999Z</time></trkpt><trkpt lat="48.31116616074345" lon="-0.6538361551707593"><ele>149.0</ele><time>2026-04-07T16:42:23.999Z</time></trkpt><trkpt lat="48.31123884479176" lon="-0.6538144513980935"><ele>149.0</ele><time>2026-04-07T16:42:25.999Z</time></trkpt><trkpt lat="48.311337812174685" lon="-0.653774488983499"><ele>149.0</ele><time>2026-04-07T16:42:28.999Z</time></trkpt><trkpt lat="48.31141226363282" lon="-0.653783253904111"><ele>149.0</ele><time>2026-04-07T16:42:30.999Z</time></trkpt><trkpt lat="48.31149529904756" lon="-0.6537748682816713"><ele>149.0</ele><time>2026-04-07T16:42:33.999Z</time></trkpt><trkpt lat="48.31155865818267" lon="-0.6537646587357687"><ele>148.83333333333331</ele><time>2026-04-07T16:42:35.999Z</time></trkpt><trkpt lat="48.31162789899957" lon="-0.6537728200508599"><ele>148.66666666666666</ele><time>2026-04-07T16:42:37.999Z</time></trkpt><trkpt lat="48.311700101072184" lon="-0.6537733190393954"><ele>148.5</ele><time>2026-04-07T16:42:39.999Z</time></trkpt><trkpt lat="48.31176338673467" lon="-0.6537595642192068"><ele>148.33333333333334</ele><time>2026-04-07T16:42:41.999Z</time></trkpt><trkpt lat="48.31184946728175" lon="-0.6537369912739391"><ele>148.16666666666669</ele><time>2026-04-07T16:42:44.999Z</time></trkpt><trkpt lat="48.31193886654373" lon="-0.6537327582151671"><ele>148.0</ele><time>2026-04-07T16:42:47.999Z</time></trkpt><trkpt lat="48.31202406463447" lon="-0.6537162937338871"><ele>148.0</ele><time>2026-04-07T16:42:50.999Z</time></trkpt><trkpt lat="48.312089737525426" lon="-0.6537080937809429"><ele>148.0</ele><time>2026-04-07T16:42:52.999Z</time></trkpt><trkpt lat="48.31217309079939" lon="-0.6537011511876653"><ele>148.0</ele><time>2026-04-07T16:42:55.999Z</time></trkpt><trkpt lat="48.31223812691532" lon="-0.653739203248893"><ele>148.0</ele><time>2026-04-07T16:42:57.999Z</time></trkpt><trkpt lat="48.31229733001705" lon="-0.6537784203096598"><ele>148.0</ele><time>2026-04-07T16:42:59.999Z</time></trkpt><trkpt lat="48.31238763303169" lon="-0.6537826729592342"><ele>148.0</ele><time>2026-04-07T16:43:02.999Z</time></trkpt><trkpt lat="48.31245639921725" lon="-0.653796670637472"><ele>148.0</ele><time>2026-04-07T16:43:04.999Z</time></trkpt><trkpt lat="48.31255407749606" lon="-0.6537964023091002"><ele>147.66666666666669</ele><time>2026-04-07T16:43:07.999Z</time></trkpt><trkpt lat="48.31261854806327" lon="-0.6538262190152387"><ele>147.33333333333334</ele><time>2026-04-07T16:43:09.999Z</time></trkpt><trkpt lat="48.312668655393445" lon="-0.6539002664525925"><ele>147.0</ele><time>2026-04-07T16:43:11.999Z</time></trkpt><trkpt lat="48.31271936100469" lon="-0.6539647545033075"><ele>146.66666666666666</ele><time>2026-04-07T16:43:13.999Z</time></trkpt><trkpt lat="48.31280299745165" lon="-0.6539356712670801"><ele>146.33333333333331</ele><time>2026-04-07T16:43:16.999Z</time></trkpt><trkpt lat="48.31288071106549" lon="-0.6539118834974667"><ele>146.0</ele><time>2026-04-07T16:43:19.999Z</time></trkpt><trkpt lat="48.312954743750694" lon="-0.6538233675176839"><ele>146.0</ele><time>2026-04-07T16:43:22.999Z</time></trkpt><trkpt lat="48.313018159387624" lon="-0.6537878439998712"><ele>146.0</ele><time>2026-04-07T16:43:24.999Z</time></trkpt><trkpt lat="48.3130974134071" lon="-0.6538531325277507"><ele>146.0</ele><time>2026-04-07T16:43:27.999Z</time></trkpt><trkpt lat="48.31317575812024" lon="-0.6539053692612802"><ele>146.0</ele><time>2026-04-07T16:43:30.999Z</time></trkpt><trkpt lat="48.31325056686518" lon="-0.6539529057896304"><ele>146.0</ele><time>2026-04-07T16:43:33.999Z</time></trkpt><trkpt lat="48.31333782799671" lon="-0.6539898282809897"><ele>146.0</ele><time>2026-04-07T16:43:36.999Z</time></trkpt><trkpt lat="48.3134076692702" lon="-0.6540790096111362"><ele>145.83333333333331</ele><time>2026-04-07T16:43:39.999Z</time></trkpt><trkpt lat="48.31349275003005" lon="-0.6541216060709641"><ele>145.66666666666666</ele><time>2026-04-07T16:43:43Z</time></trkpt><trkpt lat="48.31357519920921" lon="-0.6541432776880676"><ele>145.5</ele><time>2026-04-07T16:43:46Z</time></trkpt><trkpt lat="48.31366085004116" lon="-0.6541778708978748"><ele>145.33333333333334</ele><time>2026-04-07T16:43:49Z</time></trkpt><trkpt lat="48.313743498729764" lon="-0.6542052544778508"><ele>145.16666666666669</ele><time>2026-04-07T16:43:52Z</time></trkpt><trkpt lat="48.313826506742124" lon="-0.6542071755716817"><ele>145.0</ele><time>2026-04-07T16:43:55Z</time></trkpt><trkpt lat="48.313911632720995" lon="-0.6542094171359342"><ele>145.0</ele><time>2026-04-07T16:43:58Z</time></trkpt><trkpt lat="48.31399851323659" lon="-0.6542084052957853"><ele>145.0</ele><time>2026-04-07T16:44:01Z</time></trkpt><trkpt lat="48.31407071883236" lon="-0.6541862892793577"><ele>145.0</ele><time>2026-04-07T16:44:04Z</time></trkpt><trkpt lat="48.31414903985267" lon="-0.6541565712519901"><ele>145.0</ele><time>2026-04-07T16:44:07Z</time></trkpt><trkpt lat="48.31422812921695" lon="-0.6541280026422672"><ele>145.0</ele><time>2026-04-07T16:44:10Z</time></trkpt><trkpt lat="48.31430653112613" lon="-0.6540834705850648"><ele>145.0</ele><time>2026-04-07T16:44:13Z</time></trkpt><trkpt lat="48.31438037070674" lon="-0.6540492039849405"><ele>145.0</ele><time>2026-04-07T16:44:16Z</time></trkpt><trkpt lat="48.31446908150105" lon="-0.6540051701954963"><ele>145.0</ele><time>2026-04-07T16:44:19Z</time></trkpt><trkpt lat="48.31453719173324" lon="-0.6539536660120008"><ele>145.0</ele><time>2026-04-07T16:44:22Z</time></trkpt><trkpt lat="48.314626362896554" lon="-0.6539133571360248"><ele>145.0</ele><time>2026-04-07T16:44:26Z</time></trkpt><trkpt lat="48.314694032846376" lon="-0.6539039850266093"><ele>145.0</ele><time>2026-04-07T16:44:28Z</time></trkpt><trkpt lat="48.31476368023283" lon="-0.6538740866346813"><ele>145.0</ele><time>2026-04-07T16:44:31Z</time></trkpt><trkpt lat="48.31484351224922" lon="-0.6538297450737192"><ele>144.83333333333334</ele><time>2026-04-07T16:44:34Z</time></trkpt><trkpt lat="48.31492876128312" lon="-0.6537809455258206"><ele>144.66666666666669</ele><time>2026-04-07T16:44:37Z</time></trkpt><trkpt lat="48.31500259214558" lon="-0.6537360739255605"><ele>144.5</ele><time>2026-04-07T16:44:40Z</time></trkpt><trkpt lat="48.31507912455493" lon="-0.6536805104280117"><ele>144.33333333333334</ele><time>2026-04-07T16:44:43Z</time></trkpt><trkpt lat="48.31514195378052" lon="-0.6536318774536048"><ele>144.16666666666666</ele><time>2026-04-07T16:44:46Z</time></trkpt><trkpt lat="48.31522235292038" lon="-0.6535725171652359"><ele>144.0</ele><time>2026-04-07T16:44:49Z</time></trkpt><trkpt lat="48.31529304457272" lon="-0.6535437985963201"><ele>144.0</ele><time>2026-04-07T16:44:52Z</time></trkpt><trkpt lat="48.315380258380294" lon="-0.6535241809792008"><ele>144.0</ele><time>2026-04-07T16:44:55Z</time></trkpt><trkpt lat="48.31544907097775" lon="-0.6534842657284514"><ele>144.0</ele><time>2026-04-07T16:44:58Z</time></trkpt><trkpt lat="48.315531855643634" lon="-0.6534350145727913"><ele>144.0</ele><time>2026-04-07T16:45:01Z</time></trkpt><trkpt lat="48.31561172505439" lon="-0.6533902675376501"><ele>144.0</ele><time>2026-04-07T16:45:04Z</time></trkpt><trkpt lat="48.31567739576073" lon="-0.6533407014676768"><ele>144.0</ele><time>2026-04-07T16:45:07Z</time></trkpt><trkpt lat="48.31575712083819" lon="-0.6532901298896544"><ele>144.00000000000003</ele><time>2026-04-07T16:45:10Z</time></trkpt><trkpt lat="48.31582064464512" lon="-0.6532553613312584"><ele>144.0</ele><time>2026-04-07T16:45:13Z</time></trkpt><trkpt lat="48.31589387626462" lon="-0.6532159311275776"><ele>144.0</ele><time>2026-04-07T16:45:16Z</time></trkpt><trkpt lat="48.31596296157997" lon="-0.6531451210818188"><ele>144.0</ele><time>2026-04-07T16:45:19Z</time></trkpt><trkpt lat="48.31602589218883" lon="-0.6531133643371296"><ele>144.0</ele><time>2026-04-07T16:45:22.001Z</time></trkpt><trkpt lat="48.31608732531354" lon="-0.6530804734043086"><ele>144.00000000000003</ele><time>2026-04-07T16:45:24.001Z</time></trkpt><trkpt lat="48.3161528634452" lon="-0.6530171505776386"><ele>144.0</ele><time>2026-04-07T16:45:28.001Z</time></trkpt><trkpt lat="48.31621669170254" lon="-0.6529765568638499"><ele>144.00000000000003</ele><time>2026-04-07T16:45:31.001Z</time></trkpt><trkpt lat="48.316292088701516" lon="-0.6529864606121782"><ele>144.0</ele><time>2026-04-07T16:45:34.001Z</time></trkpt><trkpt lat="48.316373985822594" lon="-0.6529967529482076"><ele>144.0</ele><time>2026-04-07T16:45:37.001Z</time></trkpt><trkpt lat="48.31644612117797" lon="-0.6530263406177699"><ele>144.0</ele><time>2026-04-07T16:45:40.001Z</time></trkpt><trkpt lat="48.31651378626815" lon="-0.6530185980920443"><ele>144.0</ele><time>2026-04-07T16:45:44Z</time></trkpt><trkpt lat="48.31656888957303" lon="-0.6530794507485826"><ele>144.00000000000003</ele><time>2026-04-07T16:45:49Z</time></trkpt><trkpt lat="48.31662734046987" lon="-0.6531177352265547"><ele>144.0</ele><time>2026-04-07T16:45:55Z</time></trkpt><trkpt lat="48.31668828903841" lon="-0.653151245526036"><ele>144.14285714285717</ele><time>2026-04-07T16:46:00Z</time></trkpt><trkpt lat="48.316739378102184" lon="-0.6532168731163961"><ele>144.28571428571428</ele><time>2026-04-07T16:46:05Z</time></trkpt><trkpt lat="48.31680413848069" lon="-0.6532225689127708"><ele>144.42857142857144</ele><time>2026-04-07T16:46:10Z</time></trkpt><trkpt lat="48.31686144579823" lon="-0.6532930537546433"><ele>144.57142857142858</ele><time>2026-04-07T16:46:15Z</time></trkpt><trkpt lat="48.316909493456336" lon="-0.6533704658933136"><ele>144.71428571428572</ele><time>2026-04-07T16:46:20Z</time></trkpt><trkpt lat="48.316971324290286" lon="-0.653408949103107"><ele>144.85714285714286</ele><time>2026-04-07T16:46:25Z</time></trkpt><trkpt lat="48.317034201927555" lon="-0.6534512981268239"><ele>145.0</ele><time>2026-04-07T16:46:30Z</time></trkpt><trkpt lat="48.31709660615609" lon="-0.6534959943266354"><ele>145.0</ele><time>2026-04-07T16:46:35Z</time></trkpt><trkpt lat="48.31716656071449" lon="-0.6535079447030657"><ele>145.0</ele><time>2026-04-07T16:46:40Z</time></trkpt><trkpt lat="48.31722804480721" lon="-0.6534595616515976"><ele>145.0</ele><time>2026-04-07T16:46:45.001Z</time></trkpt></trkseg></trk></gpx>